September 16, 2021
Temp
 
85.5 °F
 
Heat Idx
 
85.8 °F
 
Dew Pt.
 
59.1 °F
 
Humidity
 
41%
 
Pressure
 
1009.1 hPa 
  falling slowly
Wind
 
3.0 mph 
    WSW
Rain
 
0.00 in 
  0.00 in/hr
UV index
 
---  
 
Solar rad.
 
100 W/m²
 
This
Afternoon
This Afternoon: Sunny, with a high near 81. Southwest wind around 10 mph.
Sunny
Tonight

Tonight: Patchy fog after 11pm.  Otherwise, increasing clouds, with a low around 57. South southwest wind around 5 mph becoming calm  in the evening.
Patchy Fog
Hi 81 °F Lo 57 °F
MAP MAG LOCAL DATETIME
y/m/d h:m:s
LAT
deg
LON
deg
DEPTH
km
LOCATION
map0.92021/09/16 16:44:1036.220N117.846W5.91 16 km (10 mi) ESE of Olancha, CA
map0.62021/09/16 16:16:3438.127N118.031W3.6 68 km (42 mi) SE of Hawthorne, NV
map1.12021/09/16 16:14:4534.031N117.233W19.3 3 km ( 2 mi) SE of Loma Linda, CA
map0.72021/09/16 16:08:2135.679N117.501W4.49 13 km ( 8 mi) SW of Searles Valley, CA
map0.82021/09/16 16:06:0638.837N122.785W2.11 6 km ( 3 mi) WNW of Cobb, CA
map1.12021/09/16 15:58:3838.831N122.818W1.83 8 km ( 5 mi) NW of The Geysers, CA
map1.42021/09/16 15:58:2638.830N122.819W1.92 8 km ( 5 mi) NW of The Geysers, CA
map1.12021/09/16 15:41:1536.102N120.676W-0.05 29 km (18 mi) W of Coalinga, CA
map0.92021/09/16 15:40:3738.835N122.813W2.29 8 km ( 5 mi) W of Cobb, CA
map0.42021/09/16 15:29:3738.834N122.812W2.34 8 km ( 5 mi) W of Cobb, CA
map1.02021/09/16 15:16:4733.511N116.448W6.77 21 km (13 mi) SW of La Quinta, CA
map-0.12021/09/16 15:03:1835.903N117.703W3.07 19 km (12 mi) E of Little Lake, CA
map1.72021/09/16 14:55:4437.423N118.538W12.37 10 km ( 6 mi) NW of West Bishop, CA
map2.82021/09/16 14:45:1838.473N119.521W2.09 38 km (24 mi) SSW of Smith Valley, NV
map1.22021/09/16 14:15:0838.809N122.827W1.22 7 km ( 4 mi) WNW of The Geysers, CA
map1.32021/09/16 14:11:5134.281N116.803W8.45 4 km ( 3 mi) ENE of Big Bear City, CA
map1.22021/09/16 14:00:3338.499N119.542W4.1 36 km (22 mi) SSW of Smith Valley, NV
map1.12021/09/16 13:54:2434.057N117.257W16.82 1 km ( 1 mi) NNE of Loma Linda, CA
map0.52021/09/16 13:49:2338.792N122.750W3.8 2 km ( 1 mi) NNE of The Geysers, CA
map0.82021/09/16 13:36:5335.703N117.475W1.51 10 km ( 6 mi) SW of Searles Valley, CA
map1.42021/09/16 13:28:3234.008N116.319W8.55 14 km ( 9 mi) S of Joshua Tree, CA
map0.12021/09/16 13:13:1839.234N120.096W10.6 4 km ( 2 mi) W of Tahoe Vista, CA
map1.02021/09/16 12:59:1139.190N119.624W5.9 6 km ( 4 mi) SSW of Dayton, NV
map0.02021/09/16 12:54:3239.237N120.097W10.8 4 km ( 2 mi) W of Tahoe Vista, CA
map1.42021/09/16 12:18:3835.051N118.319W-0.82 0 km ( 0 mi) NNE of Quarry at MOJAVE (Probable quarry explosion)
map0.92021/09/16 11:53:5738.817N122.797W2.56 6 km ( 4 mi) NW of The Geysers, CA
map1.12021/09/16 11:20:0035.704N117.510W7.24 12 km ( 7 mi) SW of Searles Valley, CA
map1.92021/09/16 11:00:5033.066N115.002W-0.25 1 km ( 0 mi) NNW of Quarry at RUN (Probable quarry explosion)
map0.22021/09/16 10:42:0035.946N117.680W4.52 20 km (13 mi) E of Little Lake, CA
map0.32021/09/16 10:41:4735.685N117.489W4.58 12 km ( 7 mi) SW of Searles Valley, CA
map0.92021/09/16 10:38:0538.826N122.805W1.53 7 km ( 4 mi) NW of The Geysers, CA
map0.02021/09/16 10:11:3433.345N117.470W0 15 km ( 9 mi) WNW of Camp Pendleton North, CA
map0.32021/09/16 10:09:5733.866N116.885W18.18 7 km ( 4 mi) S of Banning, CA
map0.02021/09/16 09:56:3633.296N116.822W0 8 km ( 5 mi) SSE of Palomar Observatory, CA
map0.02021/09/16 09:56:0733.352N117.433W0 12 km ( 7 mi) WNW of Camp Pendleton North, CA
map0.32021/09/16 09:55:2333.870N116.772W13.12 6 km ( 3 mi) SSE of Cabazon, CA
map0.52021/09/16 09:43:5333.603N116.761W12.83 10 km ( 6 mi) WNW of Anza, CA
map0.92021/09/16 09:39:0538.796N122.810W3.47 5 km ( 3 mi) WNW of The Geysers, CA
map0.82021/09/16 09:38:5838.799N122.810W3.54 5 km ( 3 mi) WNW of The Geysers, CA
map2.42021/09/16 09:38:0438.797N122.810W3.23 5 km ( 3 mi) WNW of The Geysers, CA
map-0.32021/09/16 09:23:3235.922N117.683W2.38 20 km (13 mi) E of Little Lake, CA
map0.82021/09/16 08:59:0635.726N117.557W4.91 15 km ( 9 mi) WSW of Searles Valley, CA
map0.92021/09/16 08:53:5338.775N122.754W0.08 0 km ( 0 mi) SE of The Geysers, CA
map1.72021/09/16 08:47:1439.550N122.566W3.71 32 km (20 mi) W of Willows, CA
map1.22021/09/16 08:38:1938.186N117.876W9.7 58 km (36 mi) WNW of Tonopah, NV
map-0.02021/09/16 08:34:1335.665N117.486W6.52 14 km ( 8 mi) SSW of Searles Valley, CA
map1.02021/09/16 08:15:5133.998N116.642W16.68 8 km ( 5 mi) SW of Morongo Valley, CA
map0.32021/09/16 08:15:4039.161N119.670W13.2 8 km ( 5 mi) E of Carson City, NV
map0.72021/09/16 08:01:1235.615N117.474W7.37 18 km (11 mi) SSW of Searles Valley, CA
map0.92021/09/16 07:54:2138.522N119.426W9.2 30 km (19 mi) SSW of Smith Valley, NV
map0.82021/09/16 07:42:3440.167N119.790W3.8 56 km (35 mi) NNE of Cold Springs, NV
map0.92021/09/16 07:27:1138.163N117.900W11.5 59 km (37 mi) W of Tonopah, NV
map0.52021/09/16 07:14:4138.173N117.926W9.0 62 km (38 mi) W of Tonopah, NV
map-0.22021/09/16 07:09:0135.951N117.683W2.66 20 km (13 mi) E of Little Lake, CA
map0.82021/09/16 07:00:3938.812N122.792W1.79 5 km ( 3 mi) NW of The Geysers, CA
map0.92021/09/16 06:13:2834.237N116.732W0.99 11 km ( 7 mi) ESE of Big Bear City, CA
map0.22021/09/16 06:04:5238.171N117.920W4.7 61 km (38 mi) W of Tonopah, NV
map1.12021/09/16 05:44:4438.520N119.511W8.8 33 km (20 mi) SSW of Smith Valley, NV
map1.62021/09/16 05:40:4236.648N121.292W4.86 19 km (12 mi) SSE of Ridgemark, CA
map1.62021/09/16 05:30:0135.646N117.545W10.4 12 km ( 8 mi) ENE of Ridgecrest, CA
map1.12021/09/16 05:13:1538.599N119.357W4.0 21 km (13 mi) S of Smith Valley, NV
map0.62021/09/16 05:03:2533.604N116.806W5.64 13 km ( 8 mi) WNW of Anza, CA
map0.92021/09/16 04:39:2839.393N117.646W2.4 51 km (32 mi) WSW of Austin, NV
map1.12021/09/16 04:27:1434.217N117.407W2.81 1 km ( 0 mi) SW of Devore, CA
map0.92021/09/16 04:17:4338.793N122.722W1.92 3 km ( 2 mi) S of Cobb, CA
map1.22021/09/16 04:11:1835.620N117.472W7.15 18 km (11 mi) SSW of Searles Valley, CA
map1.92021/09/16 03:59:0338.795N122.722W0.41 3 km ( 2 mi) S of Cobb, CA
map0.32021/09/16 03:49:0435.643N117.550W10.34 12 km ( 7 mi) ENE of Ridgecrest, CA
map1.02021/09/16 03:33:1038.586N118.471W0.0 15 km ( 9 mi) ENE of Hawthorne, NV
map0.72021/09/16 02:54:1934.056N117.505W5.59 5 km ( 3 mi) NNW of Glen Avon, CA
map1.22021/09/16 02:49:3735.646N117.546W10.47 12 km ( 7 mi) ENE of Ridgecrest, CA
map1.92021/09/16 02:40:3135.650N117.551W7.73 12 km ( 7 mi) ENE of Ridgecrest, CA
map1.12021/09/16 02:25:2238.143N118.006W2.7 68 km (42 mi) W of Tonopah, NV
map1.22021/09/16 02:14:3738.539N119.414W4.4 28 km (17 mi) SSW of Smith Valley, NV
map1.72021/09/16 02:13:3238.856N123.580W3.23 19 km (12 mi) NW of Sea Ranch, CA
map1.12021/09/16 01:59:1938.677N119.486W5.3 17 km (11 mi) SW of Smith Valley, NV
map0.82021/09/16 01:44:5139.020N122.593W-0.59 7 km ( 4 mi) E of Clearlake Oaks, CA
map2.62021/09/16 01:37:0040.296N124.371W30.09 32 km (20 mi) SW of Rio Dell, CA
map0.32021/09/16 01:21:4833.593N116.805W6.38 13 km ( 8 mi) WNW of Anza, CA
map0.92021/09/16 01:09:3538.829N122.848W1.51 10 km ( 6 mi) NW of The Geysers, CA
map0.82021/09/16 01:08:0135.800N117.621W7.98 20 km (12 mi) W of Searles Valley, CA
map0.62021/09/16 01:00:1637.576N118.861W4.69 12 km ( 8 mi) ESE of Mammoth Lakes, CA
map0.02021/09/16 00:51:4737.601N118.962W-0.73 4 km ( 3 mi) SSE of Mammoth Lakes, CA
map0.32021/09/16 00:45:0933.951N117.141W2.91 8 km ( 5 mi) ENE of Moreno Valley, CA
map0.22021/09/16 00:42:3733.641N116.700W13.34 10 km ( 6 mi) NNW of Anza, CA
map0.32021/09/16 00:40:3133.638N116.697W12.57 9 km ( 6 mi) NNW of Anza, CA
map0.62021/09/16 00:37:1838.167N117.886W6.8 58 km (36 mi) W of Tonopah, NV
map1.62021/09/16 00:36:5638.420N119.559W5.4 45 km (28 mi) SSW of Smith Valley, NV
map1.42021/09/16 00:34:1038.410N119.556W7.5 45 km (28 mi) SSW of Smith Valley, NV
map1.12021/09/16 00:17:5337.057N115.810W9.5 67 km (41 mi) WSW of Alamo, NV
map0.92021/09/15 23:58:4338.835N122.817W1.79 8 km ( 5 mi) W of Cobb, CA
map2.12021/09/15 23:51:5638.421N119.563W6.29 45 km (28 mi) SSW of Smith Valley, NV
map0.82021/09/15 23:49:3534.017N117.129W15.46 6 km ( 4 mi) S of Mentone, CA
map1.22021/09/15 23:17:4338.787N122.738W1.3 2 km ( 1 mi) NE of The Geysers, CA
map1.32021/09/15 22:49:1636.281N118.030W4.75 2 km ( 1 mi) W of Olancha, CA
map0.92021/09/15 22:41:0033.172N116.379W7.22 9 km ( 6 mi) S of Borrego Springs, CA
map0.92021/09/15 22:21:4735.692N117.493W0.92 12 km ( 7 mi) SW of Searles Valley, CA
map0.32021/09/15 21:53:1833.945N116.388W7.48 11 km ( 7 mi) E of Desert Hot Springs, CA
map1.62021/09/15 21:49:3438.424N119.564W5.57 44 km (28 mi) SSW of Smith Valley, NV
map0.32021/09/15 21:47:2133.703N116.754W15.11 5 km ( 3 mi) SW of Idyllwild, CA
map1.62021/09/15 21:43:1238.786N122.722W1.62 3 km ( 2 mi) ENE of The Geysers, CA
map1.02021/09/15 21:34:0135.672N117.508W9.05 14 km ( 9 mi) SW of Searles Valley, CA
map1.22021/09/15 21:33:0734.243N118.909W0.37 5 km ( 3 mi) SSW of Moorpark, CA
map1.02021/09/15 21:30:5438.786N122.720W2.36 3 km ( 2 mi) ENE of The Geysers, CA
map1.12021/09/15 21:00:2135.679N117.476W7.32 12 km ( 7 mi) SW of Searles Valley, CA
map1.42021/09/15 20:36:1638.125N118.009W1.9 68 km (43 mi) W of Tonopah, NV
map1.22021/09/15 20:34:2738.126N118.010W2.5 68 km (43 mi) W of Tonopah, NV
map2.62021/09/15 20:23:5537.414N118.621W9.57 16 km (10 mi) WNW of West Bishop, CA
map1.82021/09/15 20:23:4237.414N118.621W11.17 16 km (10 mi) WNW of West Bishop, CA
map1.52021/09/15 20:14:3734.954N119.111W8.73 12 km ( 8 mi) NNE of Pine Mountain Club, CA
map1.12021/09/15 20:12:4337.429N117.074W0.0 64 km (40 mi) NNW of Beatty, NV
map1.22021/09/15 19:53:3135.122N119.636W19.2 16 km (10 mi) W of Taft, CA
map2.82021/09/15 19:45:4236.045N120.614W4.29 23 km (14 mi) NW of Parkfield, CA
map1.12021/09/15 19:34:4638.501N122.557W2.14 8 km ( 5 mi) W of Saint Helena, CA
map0.42021/09/15 19:29:1238.838N122.837W1.38 10 km ( 6 mi) NW of The Geysers, CA
map2.32021/09/15 19:08:4737.528N121.896W6.12 8 km ( 5 mi) ESE of Fremont, CA
map0.72021/09/15 19:07:3238.791N122.801W3.05 4 km ( 3 mi) WNW of The Geysers, CA
map0.42021/09/15 18:39:3838.825N122.852W2.16 10 km ( 6 mi) WNW of The Geysers, CA
map1.62021/09/15 18:24:1735.907N117.741W7.09 15 km ( 9 mi) ESE of Little Lake, CA
map0.92021/09/15 18:21:0736.039N120.331W3.11 12 km ( 7 mi) SSE of Coalinga, CA
map1.72021/09/15 17:59:2935.197N119.171W23.79 21 km (13 mi) S of Rosedale, CA
map0.62021/09/15 17:38:4535.909N117.740W7.88 15 km (10 mi) ESE of Little Lake, CA
map1.12021/09/15 17:37:1340.196N119.794W6.9 59 km (37 mi) NNE of Cold Springs, NV
map0.42021/09/15 17:30:3938.511N119.539W5.3 35 km (22 mi) SSW of Smith Valley, NV
map0.62021/09/15 17:30:2038.154N117.890W9.4 58 km (36 mi) W of Tonopah, NV
map0.52021/09/15 17:01:4038.810N122.773W1.09 4 km ( 2 mi) NNW of The Geysers, CA
map1.52021/09/15 16:51:5538.425N119.567W5.68 44 km (28 mi) SSW of Smith Valley, NV
map0.92021/09/15 16:34:2938.797N122.810W3.39 5 km ( 3 mi) WNW of The Geysers, CA
map1.52021/09/15 16:11:2133.594N116.814W5.87 14 km ( 8 mi) WNW of Anza, CA
map0.62021/09/15 16:07:4537.560N118.873W3.94 13 km ( 8 mi) SE of Mammoth Lakes, CA
map1.62021/09/15 16:05:5935.032N117.674W-0.82 1 km ( 0 mi) ENE of Quarry at BORON (Probable quarry explosion)
map0.82021/09/15 16:01:4433.600N116.808W5.76 13 km ( 8 mi) WNW of Anza, CA
map2.22021/09/15 15:50:2737.375N120.960W1.4 9 km ( 5 mi) NE of Newman, CA
map1.32021/09/15 15:17:2338.239N118.643W0.6 32 km (20 mi) S of Hawthorne, NV
map0.52021/09/15 15:16:1433.593N116.806W7.18 13 km ( 8 mi) WNW of Anza, CA
map0.72021/09/15 14:53:3335.870N117.716W8.63 19 km (12 mi) ESE of Little Lake, CA
map0.52021/09/15 14:23:5338.145N117.892W12.2 59 km (36 mi) W of Tonopah, NV
map1.82021/09/15 14:20:5833.065N115.003W-0.25 1 km ( 0 mi) NNW of Quarry at RUN (Probable quarry explosion)
map1.22021/09/15 14:17:0838.301N118.641W1.4 25 km (15 mi) S of Hawthorne, NV
map1.22021/09/15 14:15:5138.241N118.630W0.0 32 km (20 mi) S of Hawthorne, NV
map0.92021/09/15 14:12:3138.311N119.298W10.3 53 km (33 mi) S of Smith Valley, NV
map0.02021/09/15 13:44:4037.566N118.871W2.43 12 km ( 8 mi) SE of Mammoth Lakes, CA
map1.22021/09/15 13:40:1238.826N122.799W1.58 7 km ( 4 mi) NW of The Geysers, CA
map1.62021/09/15 13:35:4838.415N119.586W9.0 46 km (29 mi) SSW of Smith Valley, NV
map0.82021/09/15 13:30:4233.351N116.261W11.06 15 km ( 9 mi) NE of Borrego Springs, CA
map1.72021/09/15 13:27:2533.839N117.494W2.78 1 km ( 1 mi) SSE of Quarry at CORONA (Probable quarry explosion)
map1.62021/09/15 13:17:4933.811N116.777W11.71 10 km ( 6 mi) NW of Idyllwild, CA
map1.12021/09/15 13:01:2335.509N118.394W8.29 13 km ( 8 mi) SE of Bodfish, CA
map0.92021/09/15 13:00:4232.819N117.076W-0.11 2 km ( 2 mi) ENE of Quarry at MISSION (Probable quarry explosion)
map0.82021/09/15 12:44:3732.980N117.099W-0.2 1 km ( 1 mi) N of Quarry at CPE-1 (Probable quarry explosion)
map0.42021/09/15 12:41:3238.842N122.827W1.51 9 km ( 6 mi) WNW of Cobb, CA
map1.32021/09/15 12:33:3238.441N119.562W6.4 43 km (26 mi) SSW of Smith Valley, NV
map0.72021/09/15 12:25:2533.490N116.489W13.62 19 km (12 mi) ESE of Anza, CA
map1.22021/09/15 12:02:3634.991N118.185W-0.82 2 km ( 2 mi) SSW of Quarry at TPO-DBM (Probable quarry explosion)
map1.42021/09/15 11:56:2135.944N117.678W4.43 21 km (13 mi) E of Little Lake, CA
map2.12021/09/15 11:50:0234.742N116.428W-0.92 1 km ( 1 mi) SW of Quarry at HECTOR (Probable quarry explosion)
map0.62021/09/15 11:48:3535.984N117.894W2.58 5 km ( 3 mi) NNE of Little Lake, CA
map0.72021/09/15 11:47:3337.536N118.890W0.45 14 km ( 8 mi) SE of Mammoth Lakes, CA
map-0.62021/09/15 11:41:2235.952N117.665W8.87 22 km (14 mi) E of Little Lake, CA
map0.42021/09/15 11:23:2338.799N122.907W4.37 10 km ( 6 mi) E of Cloverdale, CA
map1.62021/09/15 11:10:4733.112N117.660W11.04 29 km (18 mi) WSW of Camp Pendleton South, CA
map0.02021/09/15 11:02:0640.091N119.672W14.7 49 km (31 mi) N of Spanish Springs, NV
map0.72021/09/15 10:56:3033.714N116.831W15.41 7 km ( 4 mi) ESE of Valle Vista, CA
map0.32021/09/15 10:52:3238.783N122.787W3.79 3 km ( 2 mi) WNW of The Geysers, CA
map0.12021/09/15 10:52:0538.784N122.787W3.64 3 km ( 2 mi) WNW of The Geysers, CA
map0.62021/09/15 10:49:4938.431N119.583W8.4 44 km (28 mi) SSW of Smith Valley, NV
map-0.02021/09/15 10:49:2137.605N118.962W-1.07 4 km ( 2 mi) SSE of Mammoth Lakes, CA
map1.12021/09/15 10:41:5538.809N122.753W0.77 3 km ( 2 mi) WSW of Cobb, CA
map0.62021/09/15 10:26:4338.820N122.815W3.21 7 km ( 4 mi) NW of The Geysers, CA
map0.92021/09/15 10:26:3238.819N122.814W2.86 7 km ( 4 mi) NW of The Geysers, CA
map0.42021/09/15 10:07:1035.834N117.664W8.84 24 km (15 mi) N of Ridgecrest, CA
map0.52021/09/15 10:02:5533.578N116.804W6.63 12 km ( 8 mi) WNW of Anza, CA
map1.42021/09/15 09:28:2038.830N122.802W1.82 7 km ( 4 mi) W of Cobb, CA
map-0.32021/09/15 09:24:0535.911N117.691W5.47 20 km (12 mi) E of Little Lake, CA
map1.82021/09/15 09:18:5538.422N119.562W5.01 45 km (28 mi) SSW of Smith Valley, NV
map0.82021/09/15 09:17:2538.798N122.752W1.78 2 km ( 1 mi) N of The Geysers, CA
map2.22021/09/15 09:17:1238.533N119.481W6.07 30 km (19 mi) SSW of Smith Valley, NV
map2.32021/09/15 09:08:5638.537N119.480W6.1 30 km (19 mi) SSW of Smith Valley, NV
map1.02021/09/15 08:40:2436.141N118.190W3.63 23 km (14 mi) SW of Olancha, CA
map0.42021/09/15 08:28:2733.429N116.856W10.14 2 km ( 1 mi) SSE of Aguanga, CA
map1.22021/09/15 08:10:2138.185N117.791W12.2 51 km (32 mi) WNW of Tonopah, NV
map0.32021/09/15 08:08:4035.915N117.732W8.09 16 km (10 mi) E of Little Lake, CA
map0.12021/09/15 08:08:2635.543N117.405W4.62 25 km (15 mi) S of Trona, CA
map0.32021/09/15 08:08:0635.916N117.729W8.33 16 km (10 mi) E of Little Lake, CA
map0.42021/09/15 08:07:5035.920N117.728W9.89 16 km (10 mi) E of Little Lake, CA
map0.32021/09/15 08:06:5638.791N122.764W2.2 2 km ( 1 mi) NNW of The Geysers, CA
map1.42021/09/15 08:06:3638.176N117.803W7.1 51 km (32 mi) WNW of Tonopah, NV
map0.62021/09/15 08:00:2233.511N116.543W4.69 13 km ( 8 mi) ESE of Anza, CA
map1.72021/09/15 07:59:0938.388N119.552W7.08 48 km (30 mi) SSW of Smith Valley, NV
map1.22021/09/15 07:27:1638.832N122.824W-0.66 8 km ( 5 mi) NW of The Geysers, CA
map1.12021/09/15 07:18:5836.429N117.490W0.7 36 km (22 mi) WSW of Stovepipe Wells, CA
map0.82021/09/15 07:18:2036.426N117.481W1.39 36 km (22 mi) SW of Stovepipe Wells, CA
map1.02021/09/15 07:17:2138.812N122.816W2.44 6 km ( 4 mi) NW of The Geysers, CA
map0.62021/09/15 06:56:3735.640N117.459W6.74 15 km ( 9 mi) SSW of Searles Valley, CA
map0.72021/09/15 06:51:3238.790N122.733W1.74 2 km ( 2 mi) NE of The Geysers, CA
map1.12021/09/15 06:51:0738.791N122.734W1.56 2 km ( 2 mi) NE of The Geysers, CA
map0.92021/09/15 06:50:0638.534N119.422W7.3 29 km (18 mi) SSW of Smith Valley, NV
map0.02021/09/15 06:42:5235.949N117.671W5.6 21 km (13 mi) E of Little Lake, CA
map1.02021/09/15 06:34:5136.110N117.874W4.07 10 km ( 6 mi) NE of Coso Junction, CA
map0.72021/09/15 06:14:4935.861N117.688W6.64 21 km (13 mi) ESE of Little Lake, CA
map1.22021/09/15 06:14:4738.460N119.509W7.1 39 km (24 mi) SSW of Smith Valley, NV
map1.22021/09/15 06:04:2438.494N119.498W5.1 35 km (22 mi) SSW of Smith Valley, NV
map1.22021/09/15 05:59:4938.834N122.786W1.94 6 km ( 3 mi) WNW of Cobb, CA
map1.82021/09/15 05:59:3638.422N119.566W5.79 45 km (28 mi) SSW of Smith Valley, NV
map2.22021/09/15 05:56:1736.114N117.880W4.03 10 km ( 6 mi) NE of Coso Junction, CA
map2.32021/09/15 05:51:0635.860N120.403W5.36 5 km ( 3 mi) SSE of Parkfield, CA
map0.32021/09/15 05:47:3038.372N118.290W5.0 34 km (21 mi) ESE of Hawthorne, NV
map0.52021/09/15 05:37:0938.790N122.769W1.94 2 km ( 1 mi) NW of The Geysers, CA
map1.72021/09/15 05:36:3238.417N119.560W5.7 45 km (28 mi) SSW of Smith Valley, NV
MAP3.62021/09/15 05:29:4438.419N119.561W6.26 45 km (28 mi) SSW of Smith Valley, NV
map1.62021/09/15 05:24:5938.418N119.561W6.19 45 km (28 mi) SSW of Smith Valley, NV
map0.62021/09/15 05:20:3738.981N118.779W3.7 33 km (21 mi) E of Yerington, NV
map0.82021/09/15 05:19:5238.837N122.837W1.87 10 km ( 6 mi) NW of The Geysers, CA
map0.42021/09/15 05:09:5536.756N115.987W1.4 61 km (38 mi) N of Pahrump, NV
map0.52021/09/15 05:07:3433.251N116.774W8.69 1 km ( 1 mi) NW of Lake Henshaw, CA
map0.32021/09/15 05:01:2835.939N117.681W3.78 20 km (13 mi) E of Little Lake, CA
map0.92021/09/15 04:30:4538.840N122.828W1.31 9 km ( 6 mi) NW of The Geysers, CA
map0.92021/09/15 04:21:3136.072N117.869W2.46 8 km ( 5 mi) ENE of Coso Junction, CA
map1.32021/09/15 04:19:4540.544N120.729W1.5 16 km (10 mi) NNW of Susanville, CA
map1.32021/09/15 04:06:0040.743N120.925W6.4 43 km (27 mi) NNW of Susanville, CA
map1.02021/09/15 03:30:0936.152N118.067W2.38 15 km (10 mi) SSW of Olancha, CA
map0.32021/09/15 03:27:3633.657N116.715W14.14 9 km ( 6 mi) S of Idyllwild, CA
map-0.02021/09/15 03:25:5433.625N116.688W10.87 8 km ( 5 mi) N of Anza, CA
map0.62021/09/15 03:19:3135.877N117.677W9.85 22 km (14 mi) ESE of Little Lake, CA
map2.32021/09/15 03:01:3234.441N117.945W7.8 8 km ( 5 mi) SSW of Pearblossom, CA
map0.32021/09/15 02:55:1833.634N116.691W13.67 9 km ( 6 mi) N of Anza, CA
map0.82021/09/15 02:51:5538.821N122.761W2.14 3 km ( 2 mi) W of Cobb, CA
map1.42021/09/15 02:33:0837.087N121.084W5.02 20 km (13 mi) SSW of Gustine, CA
map0.52021/09/15 01:56:0436.051N120.641W2.73 25 km (16 mi) NW of Parkfield, CA
map0.82021/09/15 01:51:5133.482N116.507W13.88 17 km (11 mi) ESE of Anza, CA
map0.52021/09/15 01:48:5133.483N116.512W13.58 17 km (11 mi) ESE of Anza, CA
map0.22021/09/15 01:48:4034.242N116.736W1.99 10 km ( 6 mi) ESE of Big Bear City, CA
map0.92021/09/15 01:45:0838.839N122.809W1.81 8 km ( 5 mi) WNW of Cobb, CA
map1.52021/09/15 01:42:5435.497N119.625W-0.1 18 km (11 mi) NW of Buttonwillow, CA
map0.12021/09/15 01:34:1138.246N118.327W12.4 40 km (25 mi) SE of Hawthorne, NV
map0.62021/09/15 00:36:4733.662N116.731W16.36 9 km ( 5 mi) S of Idyllwild, CA
map1.22021/09/15 00:08:2734.508N118.620W2.77 2 km ( 1 mi) N of Castaic, CA
map-0.22021/09/14 23:51:3939.098N119.737W5.9 4 km ( 3 mi) ENE of Indian Hills, NV
map1.12021/09/14 23:44:1138.195N117.888W7.8 59 km (37 mi) WNW of Tonopah, NV
map1.52021/09/14 23:19:0338.825N122.799W2.75 6 km ( 4 mi) NW of The Geysers, CA
map1.52021/09/14 22:42:4738.479N122.061W4.79 9 km ( 6 mi) WSW of Winters, CA
map0.92021/09/14 22:31:0638.819N122.759W1.05 3 km ( 2 mi) W of Cobb, CA
map1.02021/09/14 22:28:0438.823N122.773W0.07 4 km ( 3 mi) W of Cobb, CA
map0.32021/09/14 22:16:5733.525N116.492W6.77 17 km (11 mi) E of Anza, CA
map1.52021/09/14 21:59:4838.545N119.415W4.16 27 km (17 mi) SSW of Smith Valley, NV
map0.42021/09/14 21:54:3333.590N116.809W7.11 13 km ( 8 mi) WNW of Anza, CA
map1.12021/09/14 21:50:1938.535N119.413W3.7 28 km (18 mi) SSW of Smith Valley, NV
map0.92021/09/14 21:40:1438.822N122.808W1.16 7 km ( 4 mi) NW of The Geysers, CA
map1.22021/09/14 21:39:5034.294N118.451W9.87 1 km ( 1 mi) NW of San Fernando, CA
map0.72021/09/14 21:18:1534.012N116.326W11.4 14 km ( 8 mi) S of Joshua Tree, CA
map0.42021/09/14 21:00:4238.835N122.821W1.66 9 km ( 5 mi) NW of The Geysers, CA
map0.92021/09/14 20:59:4738.834N122.818W1.59 8 km ( 5 mi) NW of The Geysers, CA
map0.92021/09/14 20:54:3336.152N118.067W3.06 15 km (10 mi) SSW of Olancha, CA
map0.92021/09/14 20:49:0035.803N117.632W6.47 21 km (13 mi) N of Ridgecrest, CA
map1.32021/09/14 20:07:5935.702N117.505W11.47 12 km ( 7 mi) SW of Searles Valley, CA
map0.42021/09/14 20:07:0738.898N119.648W0.1 8 km ( 5 mi) E of Gardnerville Ranchos, NV
map0.62021/09/14 19:58:5638.671N119.487W9.4 18 km (11 mi) SW of Smith Valley, NV
map0.62021/09/14 19:18:4033.502N116.487W13.16 18 km (11 mi) ESE of Anza, CA
map1.32021/09/14 19:11:3938.269N116.030W5.4107 km (67 mi) ENE of Tonopah, NV
map1.52021/09/14 19:00:5038.177N117.989W2.0 67 km (42 mi) SE of Hawthorne, NV
map1.12021/09/14 18:11:5433.691N116.808W15.52 10 km ( 6 mi) SW of Idyllwild, CA
map0.62021/09/14 18:01:4436.187N117.869W7.12 16 km (10 mi) SE of Olancha, CA
map0.92021/09/14 17:58:2338.836N122.812W1.78 8 km ( 5 mi) W of Cobb, CA
map2.92021/09/14 17:57:3534.297N118.434W7.38 1 km ( 1 mi) NNE of San Fernando, CA
map0.92021/09/14 17:46:5838.836N122.812W2.11 8 km ( 5 mi) WNW of Cobb, CA
map0.42021/09/14 17:45:2638.793N122.813W5 5 km ( 3 mi) WNW of The Geysers, CA
map2.42021/09/14 17:31:1638.477N119.509W4.57 37 km (23 mi) SSW of Smith Valley, NV
map0.42021/09/14 17:28:3638.837N122.812W1.63 8 km ( 5 mi) WNW of Cobb, CA
map0.22021/09/14 17:18:5437.570N118.871W2.8 12 km ( 8 mi) SE of Mammoth Lakes, CA
map0.82021/09/14 17:15:3537.554N118.874W3.03 13 km ( 8 mi) SE of Mammoth Lakes, CA
map0.72021/09/14 17:04:3435.754N117.569W7.08 15 km ( 9 mi) W of Searles Valley, CA
map1.62021/09/14 17:03:3338.202N117.743W7.8 47 km (29 mi) WNW of Tonopah, NV
map1.12021/09/14 17:02:3538.141N118.005W5.9 68 km (42 mi) W of Tonopah, NV
map1.22021/09/14 16:54:1138.833N122.816W1.67 8 km ( 5 mi) NW of The Geysers, CA
map2.32021/09/14 16:42:0538.532N119.428W3.12 29 km (18 mi) SSW of Smith Valley, NV
map0.72021/09/14 16:30:5638.344N118.177W9.0 44 km (27 mi) ESE of Hawthorne, NV
map1.92021/09/14 16:20:4935.032N117.689W-0.82 1 km ( 0 mi) WNW of Quarry at BORON (Probable quarry explosion)
map0.42021/09/14 16:15:0433.501N116.464W9.29 20 km (13 mi) ESE of Anza, CA
map1.22021/09/14 15:59:3933.636N117.240W15.34 6 km ( 3 mi) NE of Wildomar, CA
map1.72021/09/14 15:52:5135.946N117.678W4.3 21 km (13 mi) E of Little Lake, CA
map1.22021/09/14 15:28:1835.508N118.386W8.61 13 km ( 8 mi) SE of Bodfish, CA
map0.52021/09/14 15:10:0138.824N122.814W2.19 7 km ( 4 mi) NW of The Geysers, CA
map0.82021/09/14 14:59:1640.198N119.749W8.6 61 km (38 mi) NNE of Cold Springs, NV
map1.22021/09/14 14:50:4235.647N117.541W10.18 13 km ( 8 mi) ENE of Ridgecrest, CA
map2.12021/09/14 14:44:5140.537N119.636W8.0 80 km (50 mi) ENE of Janesville, CA
map2.92021/09/14 14:36:2634.242N117.489W8.48 2 km ( 1 mi) SSE of Lytle Creek, CA
map1.12021/09/14 14:34:5136.275N115.275W6.6 10 km ( 6 mi) NNW of Las Vegas, NV
map1.62021/09/14 14:20:0233.277N115.998W3.08 5 km ( 3 mi) WSW of Salton City, CA
map1.42021/09/14 14:12:4238.657N117.292W1.5 66 km (41 mi) N of Tonopah, NV
map0.92021/09/14 14:11:4538.832N122.819W1.65 8 km ( 5 mi) NW of The Geysers, CA
map1.62021/09/14 14:04:5038.596N122.697W1.88 10 km ( 6 mi) NNE of Larkfield-Wikiup, CA
map0.62021/09/14 14:02:3838.352N118.499W0.0 22 km (14 mi) SSE of Hawthorne, NV
map1.42021/09/14 13:59:1835.497N118.279W5.29 22 km (14 mi) ESE of Bodfish, CA
map1.02021/09/14 13:47:0636.159N118.075W2.72 15 km ( 9 mi) SSW of Olancha, CA
map0.92021/09/14 13:27:2433.875N117.502W-0.5 3 km ( 2 mi) N of Quarry at CORONA (Probable quarry explosion)
map0.92021/09/14 13:26:1138.797N122.735W1.3 3 km ( 2 mi) NE of The Geysers, CA
map1.02021/09/14 13:13:4937.486N121.426W7.64 26 km (16 mi) W of Patterson, CA
map1.22021/09/14 13:01:5438.243N118.618W0.0 31 km (19 mi) S of Hawthorne, NV
map2.22021/09/14 12:58:5336.450N117.949W7.81 19 km (12 mi) SE of Lone Pine, CA
map0.72021/09/14 12:48:0338.832N122.746W2.21 2 km ( 1 mi) WNW of Cobb, CA
map1.12021/09/14 12:23:4138.367N118.758W0.0 21 km (13 mi) SW of Hawthorne, NV
map1.12021/09/14 12:10:1633.172N116.374W7.4 9 km ( 6 mi) S of Borrego Springs, CA
map0.52021/09/14 11:57:1438.830N122.801W1.82 7 km ( 4 mi) W of Cobb, CA
map1.12021/09/14 11:53:5833.956N116.819W11.49 5 km ( 3 mi) NW of Cabazon, CA
map0.32021/09/14 11:49:0137.556N118.836W3.88 16 km (10 mi) SE of Mammoth Lakes, CA
map2.92021/09/14 11:45:2737.498N121.827W4.52 10 km ( 6 mi) NE of Milpitas, CA
map1.22021/09/14 11:44:2439.113N123.294W2.84 8 km ( 5 mi) WSW of Ukiah, CA
map0.82021/09/14 11:25:3838.179N117.875W7.9 58 km (36 mi) WNW of Tonopah, NV
map0.52021/09/14 11:24:2235.944N117.679W4.71 20 km (13 mi) E of Little Lake, CA
map0.72021/09/14 11:23:1938.187N117.756W12.0 48 km (30 mi) WNW of Tonopah, NV
map1.62021/09/14 11:13:2333.057N114.998W-0.25 0 km ( 0 mi) SSE of Quarry at RUN (Probable quarry explosion)
map1.12021/09/14 11:07:0537.923N121.951W-0.26 2 km ( 1 mi) SW of Quarry near Clayton, CA (Probable quarry explosion)
map1.72021/09/14 11:01:0038.532N119.412W3.14 29 km (18 mi) SSW of Smith Valley, NV
map0.62021/09/14 10:29:5938.490N119.532W4.2 37 km (23 mi) SSW of Smith Valley, NV
map1.22021/09/14 09:55:2334.019N117.194W14.49 4 km ( 3 mi) SSW of Redlands, CA
map-0.42021/09/14 09:39:5435.890N117.692W8.54 20 km (12 mi) ESE of Little Lake, CA
map1.42021/09/14 09:10:0333.877N117.035W-0.6 24 km (15 mi) N of Quarry at EASTSIDE RES. (Probable quarry explosion)
map1.02021/09/14 09:06:1535.936N117.715W3.89 17 km (11 mi) E of Little Lake, CA
map1.32021/09/14 09:04:5738.161N118.016W0.7 67 km (41 mi) SE of Hawthorne, NV
map0.92021/09/14 08:38:1338.784N122.742W1.03 1 km ( 1 mi) ENE of The Geysers, CA
map1.62021/09/14 08:38:0238.783N122.741W0.87 2 km ( 1 mi) ENE of The Geysers, CA
map0.72021/09/14 08:32:2338.814N122.805W2.47 6 km ( 4 mi) NW of The Geysers, CA
map0.82021/09/14 08:21:2534.238N116.732W1.16 11 km ( 7 mi) ESE of Big Bear City, CA
map0.52021/09/14 08:19:1033.597N116.805W6.49 13 km ( 8 mi) WNW of Anza, CA
map0.42021/09/14 07:39:5838.836N122.811W2.15 8 km ( 5 mi) WNW of Cobb, CA
map1.52021/09/14 07:38:5937.594N117.883W0.0 52 km (32 mi) ENE of Bishop, CA
map1.22021/09/14 07:20:1234.132N116.859W8.26 13 km ( 8 mi) SSE of Big Bear Lake, CA
map2.12021/09/14 07:12:5832.532N115.436W10.04 9 km ( 5 mi) WSW of Puebla, B.C., MX
map0.42021/09/14 07:06:5235.933N117.679W4.14 21 km (13 mi) E of Little Lake, CA
map1.62021/09/14 06:57:5038.202N117.725W3.5 46 km (28 mi) WNW of Tonopah, NV
map0.72021/09/14 06:51:3738.758N122.730W1.63 3 km ( 2 mi) SE of The Geysers, CA
map1.02021/09/14 06:46:5734.132N116.862W9.1 13 km ( 8 mi) SSE of Big Bear Lake, CA
map1.92021/09/14 06:35:2733.997N116.819W19.93 9 km ( 6 mi) NNW of Cabazon, CA
map0.92021/09/14 06:33:2438.837N122.807W2.04 7 km ( 5 mi) WNW of Cobb, CA
map0.82021/09/14 06:27:3538.841N122.838W1.86 10 km ( 6 mi) NW of The Geysers, CA
map0.62021/09/14 06:26:3038.140N117.981W11.1 66 km (41 mi) W of Tonopah, NV
map1.12021/09/14 06:25:5735.886N117.734W8.36 17 km (10 mi) ESE of Little Lake, CA
map0.82021/09/14 06:14:1538.824N122.800W1.68 6 km ( 4 mi) NW of The Geysers, CA
map0.52021/09/14 06:12:2135.680N117.477W7.87 12 km ( 7 mi) SW of Searles Valley, CA
map1.52021/09/14 06:10:4038.166N117.837W8.5 54 km (34 mi) WNW of Tonopah, NV
map0.82021/09/14 06:09:0235.670N117.508W11.36 14 km ( 9 mi) SW of Searles Valley, CA
map0.32021/09/14 05:27:3039.355N119.953W3.6 12 km ( 7 mi) N of Incline Village, NV
map0.82021/09/14 05:18:4133.912N117.578W4.93 3 km ( 2 mi) SW of Norco, CA
map0.62021/09/14 05:08:5633.252N116.400W5.72 2 km ( 1 mi) W of Borrego Springs, CA
map0.32021/09/14 04:58:3338.166N117.888W13.9 59 km (36 mi) W of Tonopah, NV
map0.52021/09/14 04:57:0138.159N118.945W3.6 49 km (31 mi) SW of Hawthorne, NV
map0.92021/09/14 04:54:2538.840N122.838W1.87 10 km ( 6 mi) NW of The Geysers, CA
map1.52021/09/14 04:54:0040.627N121.674W-1.49 24 km (15 mi) NE of Shingletown, CA
map0.92021/09/14 04:38:4438.840N122.837W1.81 10 km ( 6 mi) NW of The Geysers, CA
map1.42021/09/14 04:32:2438.840N122.838W1.9 10 km ( 6 mi) NW of The Geysers, CA
map1.82021/09/14 04:26:0438.538N119.535W4.3 32 km (20 mi) SSW of Smith Valley, NV
map0.62021/09/14 04:22:2633.586N116.806W7.24 13 km ( 8 mi) WNW of Anza, CA
map0.92021/09/14 04:06:2835.763N117.542W10.83 12 km ( 8 mi) W of Searles Valley, CA
map1.82021/09/14 04:04:5038.105N118.949W17.99 52 km (32 mi) N of Mammoth Lakes, CA
map0.32021/09/14 03:59:2538.426N118.143W0.0 43 km (27 mi) ESE of Hawthorne, NV
map1.82021/09/14 03:40:5633.635N117.242W15.07 5 km ( 3 mi) NE of Wildomar, CA
map1.22021/09/14 03:38:5637.500N119.003W3.47 15 km (10 mi) S of Mammoth Lakes, CA
map0.82021/09/14 03:27:2235.886N117.700W4.39 19 km (12 mi) ESE of Little Lake, CA
map2.02021/09/14 03:24:2636.496N121.063W4.62 25 km (15 mi) ENE of Soledad, CA
map0.72021/09/14 03:19:4038.164N117.968W2.0 65 km (41 mi) W of Tonopah, NV
map0.02021/09/14 03:19:3838.563N119.409W2.2 25 km (16 mi) SSW of Smith Valley, NV
map1.42021/09/14 03:11:3138.535N119.497W5.67 31 km (19 mi) SSW of Smith Valley, NV
map0.42021/09/14 02:51:2338.498N119.481W4.52 34 km (21 mi) SSW of Smith Valley, NV
map0.92021/09/14 02:39:0138.832N122.848W2.03 10 km ( 6 mi) NW of The Geysers, CA
map1.12021/09/14 02:00:4640.287N121.182W3.3 5 km ( 3 mi) ESE of Chester, CA
map0.82021/09/14 01:13:2638.517N119.463W3.01 31 km (20 mi) SSW of Smith Valley, NV
map0.92021/09/14 00:43:3638.843N122.840W1.55 10 km ( 6 mi) NW of The Geysers, CA
MAP3.82021/09/14 00:38:5236.297N120.593W16.6 27 km (17 mi) NW of Coalinga, CA
map0.22021/09/14 00:23:0633.492N116.786W6.75 9 km ( 6 mi) NE of Aguanga, CA
map0.12021/09/14 00:15:2537.635N118.879W6.07 9 km ( 5 mi) E of Mammoth Lakes, CA
map0.42021/09/13 23:51:3638.835N122.807W1.84 7 km ( 5 mi) W of Cobb, CA
map0.62021/09/13 23:29:2035.821N117.657W7.49 22 km (14 mi) N of Ridgecrest, CA
map1.32021/09/13 22:48:1538.184N117.784W8.7 50 km (31 mi) WNW of Tonopah, NV
map1.32021/09/13 22:47:4833.151N115.638W7.64 12 km ( 7 mi) WNW of Calipatria, CA
map0.72021/09/13 22:46:1836.132N117.838W2.49 14 km ( 9 mi) NE of Coso Junction, CA
map0.92021/09/13 22:33:2438.839N122.831W2.06 9 km ( 6 mi) NW of The Geysers, CA
map0.42021/09/13 22:16:0133.023N116.098W12.72 14 km ( 9 mi) SSE of Ocotillo Wells, CA
map0.82021/09/13 22:15:1838.807N122.799W6.22 5 km ( 3 mi) NW of The Geysers, CA
map1.12021/09/13 22:04:0035.881N117.708W4.32 19 km (12 mi) ESE of Little Lake, CA
map0.62021/09/13 22:00:2236.186N117.869W6.07 16 km (10 mi) SE of Olancha, CA
map1.12021/09/13 21:59:0434.239N118.931W2.12 7 km ( 4 mi) SW of Moorpark, CA
map0.82021/09/13 21:57:3038.176N117.784W10.7 50 km (31 mi) WNW of Tonopah, NV
map0.82021/09/13 21:56:0336.183N117.876W7.67 16 km (10 mi) SE of Olancha, CA
map1.32021/09/13 21:52:2338.196N117.758W6.6 48 km (30 mi) WNW of Tonopah, NV
map0.52021/09/13 21:46:4435.648N117.555W4.48 11 km ( 7 mi) ENE of Ridgecrest, CA
map-0.32021/09/13 21:41:5135.935N117.660W3.85 22 km (14 mi) E of Little Lake, CA
map0.42021/09/13 21:10:5933.575N116.385W13.47 12 km ( 7 mi) SW of La Quinta, CA
map0.82021/09/13 21:07:0338.809N122.793W1.26 5 km ( 3 mi) NW of The Geysers, CA
map0.82021/09/13 21:05:5538.808N122.791W1.2 5 km ( 3 mi) NW of The Geysers, CA
map1.22021/09/13 20:55:1338.855N122.802W1.02 8 km ( 5 mi) WNW of Cobb, CA
map1.42021/09/13 20:34:1933.784N116.919W13.34 4 km ( 2 mi) E of San Jacinto, CA
map1.62021/09/13 20:14:4538.490N119.494W8.57 35 km (22 mi) SSW of Smith Valley, NV
map0.42021/09/13 19:38:0638.834N122.816W1.68 8 km ( 5 mi) NW of The Geysers, CA
map2.22021/09/13 19:29:0633.953N116.948W16.97 4 km ( 2 mi) NE of Beaumont, CA
map1.22021/09/13 19:28:4438.199N117.744W8.7 47 km (29 mi) WNW of Tonopah, NV
map0.62021/09/13 19:18:3433.667N116.752W16.35 9 km ( 5 mi) SSW of Idyllwild, CA
map0.82021/09/13 19:07:1238.161N118.145W2.1 58 km (36 mi) SE of Hawthorne, NV
map0.92021/09/13 18:48:5238.830N122.806W1.94 7 km ( 4 mi) W of Cobb, CA
map0.42021/09/13 18:37:1638.158N117.907W11.3 60 km (37 mi) W of Tonopah, NV
map2.22021/09/13 18:22:2235.668N121.018W5.62 13 km ( 8 mi) NNE of Cambria, CA
map1.12021/09/13 18:04:4438.529N119.416W3.27 29 km (18 mi) SSW of Smith Valley, NV
map1.52021/09/13 17:47:5938.541N119.419W1.87 28 km (17 mi) SSW of Smith Valley, NV
map1.62021/09/13 17:19:1238.768N122.939W6 8 km ( 5 mi) ESE of Cloverdale, CA
map1.02021/09/13 17:15:4335.671N117.557W3.2 12 km ( 8 mi) ENE of Ridgecrest, CA
map0.72021/09/13 16:59:0538.520N119.499W5.43 32 km (20 mi) SSW of Smith Valley, NV
map0.72021/09/13 16:34:3433.686N116.709W15.5 6 km ( 4 mi) S of Idyllwild, CA
map0.82021/09/13 16:12:2338.545N119.530W4.28 31 km (19 mi) SSW of Smith Valley, NV
map1.32021/09/13 16:09:4538.580N117.134W3.8 57 km (36 mi) N of Tonopah, NV
map1.22021/09/13 16:02:3639.271N123.227W4.79 2 km ( 1 mi) WNW of Redwood Valley, CA
map0.92021/09/13 15:59:2838.165N117.838W8.6 54 km (34 mi) W of Tonopah, NV
map0.22021/09/13 15:59:0038.789N122.748W3 2 km ( 1 mi) NNE of The Geysers, CA
map1.42021/09/13 15:58:2136.476N121.042W8.06 25 km (16 mi) NE of Greenfield, CA
map1.32021/09/13 15:58:1535.617N117.435W6.66 17 km (11 mi) S of Searles Valley, CA
map1.22021/09/13 15:26:5638.838N122.809W2.03 8 km ( 5 mi) WNW of Cobb, CA
map1.32021/09/13 15:24:2233.009N116.124W4.8 15 km ( 9 mi) S of Ocotillo Wells, CA
map0.72021/09/13 15:20:1735.775N117.589W7.68 17 km (10 mi) W of Searles Valley, CA
map0.62021/09/13 15:18:5038.791N122.762W1.17 2 km ( 1 mi) NNW of The Geysers, CA
map1.82021/09/13 15:16:3333.066N115.001W-0.25 1 km ( 0 mi) N of Quarry at RUN (Probable quarry explosion)
map1.42021/09/13 15:01:3935.719N117.543W1.49 14 km ( 8 mi) WSW of Searles Valley, CA
map1.32021/09/13 15:00:3133.011N116.125W5.21 15 km ( 9 mi) S of Ocotillo Wells, CA
map1.32021/09/13 14:39:1840.475N121.477W2.57 28 km (17 mi) NW of Chester, CA
map1.22021/09/13 14:25:5238.298N119.311W9.9 54 km (34 mi) S of Smith Valley, NV
map1.22021/09/13 14:09:1038.145N118.565W8.9 43 km (26 mi) S of Hawthorne, NV
map0.92021/09/13 14:08:5036.981N121.637W5.64 7 km ( 4 mi) WSW of Gilroy, CA
map1.42021/09/13 14:08:0033.902N116.274W12.2 14 km ( 9 mi) NE of Thousand Palms, CA
map1.62021/09/13 14:04:3535.721N117.544W0.84 14 km ( 8 mi) WSW of Searles Valley, CA
map0.92021/09/13 14:00:3233.501N116.781W4.16 10 km ( 6 mi) NE of Aguanga, CA
map1.62021/09/13 14:00:1338.170N117.888W11.3 59 km (36 mi) W of Tonopah, NV
map1.32021/09/13 13:58:5338.173N117.873W13.8 57 km (36 mi) WNW of Tonopah, NV
map1.32021/09/13 13:56:1432.830N115.963W4.91 11 km ( 7 mi) NNE of Ocotillo, CA
map1.12021/09/13 13:52:5237.935N122.112W8.06 5 km ( 3 mi) WSW of Pleasant Hill, CA
map1.82021/09/13 13:42:4038.510N119.487W6.27 33 km (20 mi) SSW of Smith Valley, NV
map1.42021/09/13 13:34:5634.173N117.922W-0.81 21 km (13 mi) NNW of Quarry at POMONA (Probable quarry explosion)
map2.22021/09/13 13:17:5638.112N122.177W-0.07 19 km (12 mi) SSE of Quarry near Sears Point, CA(Probable quarry explosion)
map1.32021/09/13 13:13:2338.236N118.642W0.0 32 km (20 mi) S of Hawthorne, NV
map1.52021/09/13 13:09:3038.583N118.180W0.0 39 km (24 mi) E of Hawthorne, NV
map1.72021/09/13 13:02:2736.152N118.064W2.83 15 km (10 mi) SSW of Olancha, CA
map0.62021/09/13 12:26:4238.764N122.734W1.89 2 km ( 2 mi) SE of The Geysers, CA
map1.62021/09/13 11:53:5038.488N119.536W3.16 37 km (23 mi) SSW of Smith Valley, NV
map1.32021/09/13 11:38:0835.675N117.482W6.16 12 km ( 8 mi) SW of Searles Valley, CA
map0.52021/09/13 11:34:2733.416N116.617W9.3 15 km ( 9 mi) N of Warner Springs, CA
map0.72021/09/13 11:27:4938.147N117.884W11.7 58 km (36 mi) W of Tonopah, NV
map0.62021/09/13 11:19:2233.581N116.803W6.72 12 km ( 8 mi) WNW of Anza, CA
map1.02021/09/13 11:18:0133.325N116.189W11.12 18 km (11 mi) SSW of Oasis, CA
map0.62021/09/13 10:48:0835.828N117.662W9.93 23 km (14 mi) N of Ridgecrest, CA
map1.22021/09/13 10:44:2140.342N121.226W9.71 4 km ( 2 mi) N of Chester, CA
map1.32021/09/13 10:24:4737.888N118.566W7.8 46 km (28 mi) NE of Mammoth Lakes, CA
map1.92021/09/13 10:03:5539.519N119.622W2.4 11 km ( 7 mi) E of Sparks, NV
map1.82021/09/13 09:57:4736.077N120.176W11.8 9 km ( 6 mi) NNW of Avenal, CA
map1.12021/09/13 09:51:5535.885N117.701W4.05 19 km (12 mi) ESE of Little Lake, CA
map1.72021/09/13 09:51:5240.553N122.251W14.32 2 km ( 1 mi) SW of Palo Cedro, CA
map0.32021/09/13 09:47:2135.888N117.701W3.89 19 km (12 mi) ESE of Little Lake, CA
map0.12021/09/13 09:47:0435.885N117.702W2.67 19 km (12 mi) ESE of Little Lake, CA
map1.12021/09/13 09:36:4834.340N116.881W-1.41 3 km ( 2 mi) WSW of Quarry at CUSHENBURY (Probable quarry explosion)
map0.82021/09/13 09:14:0135.945N117.294W5.33 22 km (13 mi) NNE of Trona, CA
map1.22021/09/13 09:11:3038.156N117.927W9.8 62 km (38 mi) W of Tonopah, NV
map0.82021/09/13 09:11:0038.155N117.934W10.6 62 km (39 mi) W of Tonopah, NV
map1.22021/09/13 08:47:5935.885N117.701W4.11 19 km (12 mi) ESE of Little Lake, CA
map1.22021/09/13 08:39:0238.199N117.729W11.3 46 km (29 mi) WNW of Tonopah, NV
map0.62021/09/13 08:37:3933.476N116.464W13.94 21 km (13 mi) ESE of Anza, CA
map0.52021/09/13 08:31:3538.826N122.765W1.95 4 km ( 2 mi) W of Cobb, CA
map1.32021/09/13 08:24:4934.235N118.916W1.26 6 km ( 4 mi) NW of Thousand Oaks, CA
map1.02021/09/13 08:22:5934.038N117.247W17.37 2 km ( 1 mi) SE of Loma Linda, CA
map0.62021/09/13 08:19:4438.160N117.933W12.9 62 km (39 mi) W of Tonopah, NV
map1.42021/09/13 08:13:2737.649N119.395W6.42 19 km (12 mi) ESE of Yosemite Valley, CA
map0.92021/09/13 08:06:5138.818N122.762W1.63 3 km ( 2 mi) W of Cobb, CA
map0.92021/09/13 08:05:1938.157N117.928W12.0 62 km (38 mi) W of Tonopah, NV
map0.82021/09/13 08:03:3138.154N117.929W12.6 62 km (38 mi) W of Tonopah, NV
MAP3.62021/09/13 07:59:3534.228N118.898W2.41 5 km ( 3 mi) NNW of Thousand Oaks, CA
map0.82021/09/13 07:57:2838.156N117.936W10.6 62 km (39 mi) W of Tonopah, NV
map1.42021/09/13 07:55:4237.908N118.567W0.7 47 km (29 mi) NE of Mammoth Lakes, CA
map1.42021/09/13 07:54:4138.157N117.935W11.6 62 km (39 mi) W of Tonopah, NV
map1.82021/09/13 07:51:3337.635N119.407W10.71 19 km (12 mi) SE of Yosemite Valley, CA
map1.52021/09/13 07:49:2837.636N119.402W13.84 19 km (12 mi) SE of Yosemite Valley, CA
map1.82021/09/13 07:42:2537.637N119.404W11.65 19 km (12 mi) SE of Yosemite Valley, CA
map0.92021/09/13 07:22:5835.666N117.480W7.44 13 km ( 8 mi) SSW of Searles Valley, CA
map2.52021/09/13 07:07:0237.638N119.406W13.08 19 km (12 mi) SE of Yosemite Valley, CA
map0.82021/09/13 07:04:3634.006N117.097W12.39 4 km ( 3 mi) WNW of Calimesa, CA
map0.92021/09/13 06:59:5438.821N122.761W1.78 3 km ( 2 mi) W of Cobb, CA
map0.92021/09/13 06:56:1538.828N122.805W1.83 7 km ( 4 mi) NW of The Geysers, CA
map1.02021/09/13 06:54:5833.201N116.372W10.67 6 km ( 4 mi) S of Borrego Springs, CA
map1.82021/09/13 06:39:2441.364N122.026W1.78 15 km (10 mi) NE of McCloud, CA
map0.92021/09/13 06:25:5236.064N117.888W1.89 6 km ( 4 mi) ENE of Coso Junction, CA
map2.32021/09/13 06:00:5538.552N119.455W2.45 28 km (17 mi) SSW of Smith Valley, NV
map0.82021/09/13 05:59:5633.781N116.084W1.99 14 km ( 9 mi) ENE of Indio, CA
map0.62021/09/13 05:57:0333.430N116.421W13.86 20 km (12 mi) NNW of Borrego Springs, CA
map0.82021/09/13 05:54:2038.758N122.729W1.9 3 km ( 2 mi) SE of The Geysers, CA
map0.42021/09/13 05:54:1038.546N119.450W1.8 28 km (17 mi) SSW of Smith Valley, NV
map0.82021/09/13 05:51:2238.582N118.462W3.4 15 km (10 mi) ENE of Hawthorne, NV
map2.02021/09/13 05:25:0932.737N115.820W7.05 16 km (10 mi) E of Ocotillo, CA
map0.42021/09/13 05:18:1138.838N122.808W0.3 8 km ( 5 mi) WNW of Cobb, CA
map0.52021/09/13 05:05:4738.824N122.806W2.14 7 km ( 4 mi) NW of The Geysers, CA
map1.42021/09/13 04:44:3135.847N117.678W6.17 23 km (14 mi) ESE of Little Lake, CA
map1.52021/09/13 04:20:0238.553N119.411W1.46 26 km (16 mi) SSW of Smith Valley, NV
map1.92021/09/13 03:48:5738.898N119.638W3.7 9 km ( 6 mi) E of Gardnerville Ranchos, NV
map0.92021/09/13 03:10:1337.640N119.406W9.74 19 km (12 mi) SE of Yosemite Valley, CA
map1.42021/09/13 03:04:2134.089N117.306W16.41 2 km ( 1 mi) NNE of Colton, CA
map0.82021/09/13 02:54:1733.964N116.941W9.66 5 km ( 3 mi) NE of Beaumont, CA
map1.02021/09/13 02:52:4138.145N118.004W1.6 68 km (42 mi) W of Tonopah, NV
map0.92021/09/13 02:28:5338.823N122.843W1.76 9 km ( 6 mi) NW of The Geysers, CA
map0.72021/09/13 01:42:3138.141N118.498W10.2 44 km (27 mi) SSE of Hawthorne, NV
map0.52021/09/13 01:31:5638.548N119.511W5.49 30 km (19 mi) SSW of Smith Valley, NV
map1.12021/09/13 01:31:0538.549N119.504W5.64 30 km (18 mi) SSW of Smith Valley, NV
map0.52021/09/13 01:22:2038.133N118.006W3.1 68 km (42 mi) W of Tonopah, NV
map0.42021/09/13 01:19:4538.823N122.798W2.27 6 km ( 4 mi) NW of The Geysers, CA
map0.92021/09/13 01:17:5138.203N117.750W9.0 48 km (30 mi) WNW of Tonopah, NV
map0.72021/09/13 01:12:4133.636N117.237W14.34 6 km ( 4 mi) NE of Wildomar, CA
map0.72021/09/13 00:53:1738.174N117.789W11.4 50 km (31 mi) WNW of Tonopah, NV
map0.12021/09/13 00:50:4338.508N119.554W7.0 36 km (22 mi) SSW of Smith Valley, NV
map1.62021/09/13 00:48:4438.506N119.538W4.16 35 km (22 mi) SSW of Smith Valley, NV
map0.62021/09/13 00:43:4437.166N121.573W8.7 8 km ( 5 mi) ENE of Morgan Hill, CA
map0.72021/09/13 00:40:0038.111N118.100W9.6 65 km (40 mi) SE of Hawthorne, NV
map0.92021/09/13 00:33:2534.281N116.805W8.74 4 km ( 3 mi) ENE of Big Bear City, CA
map1.92021/09/13 00:31:5238.505N119.540W3.69 35 km (22 mi) SSW of Smith Valley, NV
map1.52021/09/13 00:09:2034.278N116.806W8.23 4 km ( 3 mi) ENE of Big Bear City, CA
map1.02021/09/12 23:51:3938.844N122.808W15.55 8 km ( 5 mi) WNW of Cobb, CA
map0.82021/09/12 23:35:0238.160N117.838W9.6 54 km (34 mi) W of Tonopah, NV
map0.72021/09/12 22:59:4938.826N122.800W2.15 7 km ( 4 mi) NW of The Geysers, CA
map0.62021/09/12 22:56:1034.121N116.829W7.99 16 km (10 mi) SSE of Big Bear Lake, CA
map1.52021/09/12 22:24:2233.934N116.713W10.7 7 km ( 4 mi) ENE of Cabazon, CA
map0.62021/09/12 22:08:4338.896N119.648W3.0 8 km ( 5 mi) E of Gardnerville Ranchos, NV
map1.82021/09/12 21:58:5538.482N119.507W4.75 36 km (23 mi) SSW of Smith Valley, NV
map0.52021/09/12 21:49:3738.826N122.804W2.73 7 km ( 4 mi) NW of The Geysers, CA
MAP3.02021/09/12 21:45:1238.147N117.933W11.0 62 km (39 mi) W of Tonopah, NV
map1.22021/09/12 20:56:4138.833N122.819W1.44 8 km ( 5 mi) NW of The Geysers, CA
map2.22021/09/12 20:48:5637.609N117.868W12.1 54 km (33 mi) ENE of Bishop, CA
map1.62021/09/12 20:35:3938.819N122.808W2.98 6 km ( 4 mi) NW of The Geysers, CA
map0.82021/09/12 19:48:2333.201N116.303W11.95 9 km ( 6 mi) SE of Borrego Springs, CA
map0.82021/09/12 19:41:3533.602N116.805W5.41 13 km ( 8 mi) WNW of Anza, CA
map1.42021/09/12 19:33:0938.700N119.034W7.4 28 km (17 mi) ESE of Smith, NV
map2.42021/09/12 19:20:0540.276N124.482W17.88 38 km (24 mi) SSW of Ferndale, CA
map1.32021/09/12 19:19:4738.798N122.750W1.83 2 km ( 1 mi) NNE of The Geysers, CA
map1.12021/09/12 19:18:5933.201N116.235W9.2 12 km ( 7 mi) NW of Ocotillo Wells, CA
map1.72021/09/12 18:37:3335.633N117.444W8.58 15 km (10 mi) SSW of Searles Valley, CA
map0.82021/09/12 18:35:0238.816N122.794W2.66 5 km ( 3 mi) NW of The Geysers, CA
map1.12021/09/12 18:18:2438.155N117.966W4.1 65 km (40 mi) W of Tonopah, NV
map0.02021/09/12 18:18:0138.450N119.550W3.4 41 km (26 mi) SSW of Smith Valley, NV
map1.02021/09/12 18:15:3438.756N122.744W0.89 3 km ( 2 mi) SSE of The Geysers, CA
map0.82021/09/12 17:54:2940.272N119.785W12.7 63 km (39 mi) E of Janesville, CA
map0.82021/09/12 17:47:0535.861N117.665W7.04 23 km (14 mi) ESE of Little Lake, CA
map0.92021/09/12 17:44:4532.986N115.584W3.84 5 km ( 3 mi) W of Brawley, CA
map0.72021/09/12 17:30:0338.507N119.522W1.52 35 km (21 mi) SSW of Smith Valley, NV
map1.42021/09/12 17:26:0535.682N117.519W10.8 14 km ( 9 mi) SW of Searles Valley, CA
map0.22021/09/12 17:22:3635.972N117.473W2.4 24 km (15 mi) NNW of Searles Valley, CA
map1.22021/09/12 17:05:1334.182N118.066W12.36 3 km ( 2 mi) NNW of Sierra Madre, CA
map1.62021/09/12 16:57:4135.706N117.502W11.06 11 km ( 7 mi) SW of Searles Valley, CA
map0.92021/09/12 16:24:3038.142N117.989W7.9 67 km (42 mi) W of Tonopah, NV
map0.82021/09/12 16:18:0138.833N122.785W2.29 5 km ( 3 mi) WNW of Cobb, CA
map1.62021/09/12 16:13:2535.035N117.676W0.83 1 km ( 0 mi) NE of Quarry at BORON (Probable quarry explosion)
map2.82021/09/12 16:06:4038.156N117.976W7.2 66 km (41 mi) W of Tonopah, NV
map1.72021/09/12 15:58:4938.171N117.908W9.4 60 km (37 mi) W of Tonopah, NV
map1.22021/09/12 15:57:0338.160N117.903W11.7 60 km (37 mi) W of Tonopah, NV
map0.82021/09/12 15:54:0533.575N116.385W12.03 12 km ( 7 mi) SW of La Quinta, CA
map0.92021/09/12 15:42:1438.182N117.768W12.3 49 km (30 mi) WNW of Tonopah, NV
map0.32021/09/12 15:30:5333.603N116.804W5.65 13 km ( 8 mi) WNW of Anza, CA
map0.92021/09/12 15:23:2635.867N117.695W10.09 21 km (13 mi) ESE of Little Lake, CA
map0.92021/09/12 14:52:1738.818N122.766W1.37 4 km ( 2 mi) W of Cobb, CA
map0.22021/09/12 14:33:4238.763N122.724W2.25 3 km ( 2 mi) ESE of The Geysers, CA
map2.32021/09/12 14:31:2735.772N117.585W6.31 16 km (10 mi) W of Searles Valley, CA
map0.82021/09/12 14:24:4738.492N119.495W7.77 35 km (22 mi) SSW of Smith Valley, NV
map2.22021/09/12 13:49:3740.560N122.239W14.59 0 km ( 0 mi) S of Palo Cedro, CA
map1.32021/09/12 13:47:1338.538N119.406W1.69 28 km (17 mi) S of Smith Valley, NV
map0.12021/09/12 13:32:5037.623N118.882W1.48 9 km ( 5 mi) E of Mammoth Lakes, CA
map1.32021/09/12 13:27:1738.208N117.752W3.9 48 km (30 mi) WNW of Tonopah, NV
map1.12021/09/12 13:24:4838.531N119.409W2.81 29 km (18 mi) S of Smith Valley, NV
map1.42021/09/12 13:09:3238.202N117.751W6.8 48 km (30 mi) WNW of Tonopah, NV
map0.62021/09/12 12:57:2437.365N122.221W6.44 2 km ( 2 mi) SSE of Portola Valley, CA
map1.42021/09/12 12:55:4336.185N117.868W6.3 16 km (10 mi) SE of Olancha, CA
map1.32021/09/12 12:55:1938.523N119.410W1.7 30 km (18 mi) S of Smith Valley, NV
map0.62021/09/12 12:45:4835.793N117.638W10.15 19 km (12 mi) N of Ridgecrest, CA
map1.12021/09/12 12:33:3035.641N117.555W7.68 11 km ( 7 mi) E of Ridgecrest, CA
map1.62021/09/12 12:20:5638.207N117.757W6.0 48 km (30 mi) WNW of Tonopah, NV
map1.52021/09/12 12:15:0235.904N117.702W7.63 19 km (12 mi) E of Little Lake, CA
map1.42021/09/12 12:11:4438.824N122.756W0.41 3 km ( 2 mi) W of Cobb, CA
map-0.12021/09/12 12:00:4737.647N118.886W7.23 8 km ( 5 mi) E of Mammoth Lakes, CA
map1.92021/09/12 11:10:0532.635N115.756W10 17 km (11 mi) WNW of Progreso, B.C., MX
map1.22021/09/12 10:47:5238.211N117.733W7.6 47 km (29 mi) WNW of Tonopah, NV
map1.22021/09/12 10:35:5338.130N118.958W7.0 53 km (33 mi) SW of Hawthorne, NV
map0.92021/09/12 10:33:0038.547N118.495W9.5 11 km ( 7 mi) ENE of Hawthorne, NV
map1.52021/09/12 10:21:0335.620N117.441W6.86 17 km (10 mi) SSW of Searles Valley, CA
map0.92021/09/12 10:19:5538.817N122.830W3.78 8 km ( 5 mi) NW of The Geysers, CA
map0.62021/09/12 09:52:3338.788N122.770W1.47 2 km ( 1 mi) NW of The Geysers, CA
map1.12021/09/12 09:45:0737.329N121.691W6.65 13 km ( 8 mi) ESE of East Foothills, CA
map0.82021/09/12 09:43:3138.276N119.566W0.0 60 km (37 mi) N of Yosemite Valley, CA
map0.92021/09/12 09:39:0938.201N117.754W8.3 48 km (30 mi) WNW of Tonopah, NV
map0.92021/09/12 09:08:0735.972N117.689W1.94 20 km (12 mi) E of Little Lake, CA
map-0.22021/09/12 08:47:1835.862N117.632W12.39 23 km (14 mi) WNW of Searles Valley, CA
map1.12021/09/12 08:42:5538.206N117.732W10.5 46 km (29 mi) WNW of Tonopah, NV
map-0.12021/09/12 08:35:0135.815N117.625W12.82 21 km (13 mi) WNW of Searles Valley, CA
map0.92021/09/12 08:21:4038.828N122.815W1.85 8 km ( 5 mi) NW of The Geysers, CA
MAP3.72021/09/12 08:18:5138.190N117.749W8.0 47 km (29 mi) WNW of Tonopah, NV
map2.12021/09/12 08:04:3036.634N121.251W9.77 22 km (14 mi) SSE of Ridgemark, CA
map0.82021/09/12 07:36:0637.542N118.881W5.24 14 km ( 8 mi) SE of Mammoth Lakes, CA
map1.02021/09/12 07:31:4038.805N122.793W0.49 4 km ( 3 mi) NW of The Geysers, CA
map1.52021/09/12 07:02:2238.587N118.467W0.8 15 km ( 9 mi) ENE of Hawthorne, NV
map0.72021/09/12 07:02:0033.367N116.962W9.96 9 km ( 6 mi) W of Palomar Observatory, CA
map0.72021/09/12 07:01:4538.817N122.815W2.76 7 km ( 4 mi) NW of The Geysers, CA
map2.52021/09/12 06:54:2740.281N124.367W30.61 33 km (20 mi) SW of Rio Dell, CA
map1.12021/09/12 06:52:1235.635N117.449W7.51 15 km ( 9 mi) SSW of Searles Valley, CA
map1.62021/09/12 06:47:5735.981N117.417W-0.67 24 km (15 mi) N of Searles Valley, CA
map0.82021/09/12 06:41:1333.167N116.375W4.6 10 km ( 6 mi) S of Borrego Springs, CA
map0.92021/09/12 06:36:3438.163N117.989W1.5 67 km (42 mi) W of Tonopah, NV
map0.72021/09/12 06:25:3138.828N122.813W2.21 7 km ( 5 mi) NW of The Geysers, CA
map1.22021/09/12 06:16:4336.142N118.190W4.32 23 km (14 mi) SW of Olancha, CA
map1.12021/09/12 06:05:0236.142N118.192W4.64 23 km (14 mi) SW of Olancha, CA
map1.72021/09/12 05:56:5338.584N118.472W4.2 15 km ( 9 mi) ENE of Hawthorne, NV
map2.32021/09/12 05:46:0837.288N117.620W8.69 61 km (38 mi) ENE of Big Pine, CA
map1.72021/09/12 05:31:4837.845N121.969W7.33 1 km ( 1 mi) NW of Diablo, CA
map1.02021/09/12 04:16:1038.796N122.774W3.48 3 km ( 2 mi) NW of The Geysers, CA
map0.82021/09/12 04:01:4738.788N122.756W1.98 1 km ( 1 mi) N of The Geysers, CA
map1.22021/09/12 04:00:4238.838N122.837W1.7 10 km ( 6 mi) NW of The Geysers, CA
map0.62021/09/12 03:43:3438.175N117.834W2.0 54 km (34 mi) WNW of Tonopah, NV
map1.12021/09/12 03:38:0838.134N118.954W4.0 52 km (32 mi) SW of Hawthorne, NV
map0.12021/09/12 03:23:0133.579N116.806W6.09 13 km ( 8 mi) WNW of Anza, CA
map1.12021/09/12 03:20:1034.133N117.448W7.12 4 km ( 3 mi) NNE of Fontana, CA
map1.52021/09/12 03:19:3638.520N119.447W2.9 31 km (19 mi) SSW of Smith Valley, NV
map0.82021/09/12 02:58:5334.136N117.446W8.08 4 km ( 3 mi) NNE of Fontana, CA
map0.82021/09/12 02:55:0534.135N117.446W7.13 4 km ( 3 mi) NNE of Fontana, CA
map1.62021/09/12 02:53:2734.410N116.975W8.04 4 km ( 2 mi) S of Lucerne Valley, CA
map0.92021/09/12 02:50:4033.139N116.273W11.78 13 km ( 8 mi) W of Ocotillo Wells, CA
map1.02021/09/12 02:46:5838.896N118.487W9.7 43 km (27 mi) NNE of Hawthorne, NV
map0.92021/09/12 02:39:1832.858N116.701W18.33 7 km ( 4 mi) ENE of Alpine, CA
map0.82021/09/12 02:07:3738.764N122.741W1.97 2 km ( 1 mi) SE of The Geysers, CA
map0.72021/09/12 02:02:0633.588N116.801W9.86 12 km ( 8 mi) WNW of Anza, CA
map0.52021/09/12 01:51:4233.684N116.787W17.72 9 km ( 6 mi) SW of Idyllwild, CA
map1.62021/09/12 01:40:5638.530N119.411W2.58 29 km (18 mi) SSW of Smith Valley, NV
map0.42021/09/12 01:32:1938.148N117.889W8.6 58 km (36 mi) W of Tonopah, NV
map1.32021/09/12 01:12:0837.843N121.971W6.64 1 km ( 1 mi) NW of Diablo, CA
map1.52021/09/12 00:39:1138.522N119.541W3.76 34 km (21 mi) SSW of Smith Valley, NV
map1.22021/09/12 00:27:3638.532N119.424W-0.74 29 km (18 mi) SSW of Smith Valley, NV
map1.42021/09/12 00:25:3937.088N117.507W15.9 63 km (39 mi) NNW of Stovepipe Wells, CA
map0.62021/09/12 00:18:3538.152N118.241W8.7 53 km (33 mi) SE of Hawthorne, NV
map0.22021/09/11 23:46:5338.552N119.413W0.89 26 km (16 mi) SSW of Smith Valley, NV
map0.62021/09/11 23:46:3138.545N119.457W3.86 28 km (18 mi) SSW of Smith Valley, NV
map0.82021/09/11 23:35:1538.809N122.797W2.44 5 km ( 3 mi) NW of The Geysers, CA
map1.22021/09/11 23:33:0838.174N117.785W11.7 50 km (31 mi) WNW of Tonopah, NV
map1.52021/09/11 23:27:3533.828N118.263W7.75 2 km ( 1 mi) ESE of Carson, CA
map1.62021/09/11 23:21:3637.898N118.552W6.84 47 km (29 mi) NE of Mammoth Lakes, CA
map0.72021/09/11 23:11:2835.795N117.754W8.98 17 km (11 mi) NNE of Inyokern, CA
map1.02021/09/11 23:07:3237.283N115.904W0.0 66 km (41 mi) W of Alamo, NV
map1.12021/09/11 22:56:5738.176N117.846W5.1 55 km (34 mi) WNW of Tonopah, NV
map1.22021/09/11 22:51:1133.457N116.623W8.3 12 km ( 7 mi) SSE of Anza, CA
map0.52021/09/11 22:14:4838.526N119.507W7.1 32 km (20 mi) SSW of Smith Valley, NV
map1.22021/09/11 22:05:5238.822N122.812W1.34 7 km ( 4 mi) NW of The Geysers, CA
map0.72021/09/11 21:54:4134.050N117.281W13.58 2 km ( 1 mi) W of Loma Linda, CA
map1.22021/09/11 21:43:4733.081N115.589W8.83 6 km ( 4 mi) NNE of Westmorland, CA
map1.72021/09/11 21:43:4032.284N116.358W15.86 37 km (23 mi) SSE of Campo, CA
map1.12021/09/11 21:43:3333.080N115.589W10.57 6 km ( 3 mi) NNE of Westmorland, CA
map0.92021/09/11 21:17:4238.836N122.800W2.01 7 km ( 4 mi) WNW of Cobb, CA
map0.62021/09/11 21:09:1438.170N117.874W7.4 57 km (36 mi) WNW of Tonopah, NV
map1.02021/09/11 21:08:5633.771N116.917W12.55 3 km ( 2 mi) NW of Valle Vista, CA
map0.22021/09/11 20:59:1633.577N116.804W5.7 12 km ( 8 mi) WNW of Anza, CA
map0.22021/09/11 20:58:5733.938N116.843W10.38 3 km ( 2 mi) ENE of Banning, CA
map0.62021/09/11 20:58:2638.544N119.464W4.0 29 km (18 mi) SSW of Smith Valley, NV
map1.72021/09/11 20:54:0538.533N119.541W4.63 33 km (20 mi) SSW of Smith Valley, NV
map0.82021/09/11 20:53:5238.536N119.527W3.98 32 km (20 mi) SSW of Smith Valley, NV
map0.92021/09/11 20:52:4538.544N119.459W1.78 29 km (18 mi) SSW of Smith Valley, NV
map0.62021/09/11 20:52:1438.784N122.721W1.15 3 km ( 2 mi) ENE of The Geysers, CA
map0.82021/09/11 20:50:2238.137N118.008W3.2 68 km (43 mi) W of Tonopah, NV
map1.32021/09/11 20:42:4035.786N117.598W10.81 18 km (11 mi) W of Searles Valley, CA
map2.42021/09/11 20:41:2238.535N119.543W4.39 33 km (20 mi) SSW of Smith Valley, NV
map1.22021/09/11 20:37:1438.583N118.469W1.7 15 km ( 9 mi) ENE of Hawthorne, NV
map0.92021/09/11 20:35:1638.790N122.736W1.79 2 km ( 1 mi) NE of The Geysers, CA
map0.72021/09/11 20:32:3538.166N117.841W8.4 54 km (34 mi) WNW of Tonopah, NV
map0.92021/09/11 20:15:5138.837N122.808W2.13 8 km ( 5 mi) WNW of Cobb, CA
map1.12021/09/11 20:08:2838.825N122.795W2.38 6 km ( 4 mi) W of Cobb, CA
map1.62021/09/11 20:04:3035.776N117.582W6.47 16 km (10 mi) W of Searles Valley, CA
map0.52021/09/11 20:01:0435.866N117.701W6.93 20 km (13 mi) ESE of Little Lake, CA
map0.72021/09/11 19:54:2737.572N118.747W5.3 22 km (13 mi) ESE of Mammoth Lakes, CA
map1.02021/09/11 19:43:2835.868N117.662W4.99 23 km (14 mi) ESE of Little Lake, CA
map0.72021/09/11 19:07:3535.696N117.513W8.27 13 km ( 8 mi) SW of Searles Valley, CA
map1.62021/09/11 19:05:1338.510N119.513W6.01 34 km (21 mi) SSW of Smith Valley, NV
map0.82021/09/11 18:41:1136.094N117.861W3.01 10 km ( 6 mi) NE of Coso Junction, CA
map1.12021/09/11 18:21:1833.461N116.922W10.7 6 km ( 4 mi) WNW of Aguanga, CA
map1.12021/09/11 18:15:4234.616N116.279W5.28 16 km (10 mi) SW of Ludlow, CA
map0.82021/09/11 18:13:3438.166N117.851W6.9 55 km (34 mi) W of Tonopah, NV
map0.62021/09/11 18:08:4633.638N117.236W14.77 6 km ( 4 mi) NE of Wildomar, CA
map0.62021/09/11 18:06:0833.640N117.234W14.41 6 km ( 4 mi) NE of Wildomar, CA
map0.92021/09/11 17:58:5732.945N116.856W13.58 10 km ( 6 mi) SW of San Diego Country Estates, CA
map0.32021/09/11 17:56:5835.634N117.455W9.25 16 km (10 mi) SSW of Searles Valley, CA
map1.02021/09/11 17:56:4538.533N119.484W5.93 30 km (19 mi) SSW of Smith Valley, NV
map1.72021/09/11 17:54:3638.521N119.446W2.94 31 km (19 mi) SSW of Smith Valley, NV
map1.52021/09/11 17:52:1640.612N122.175W13.64 6 km ( 4 mi) ESE of Bella Vista, CA
map0.92021/09/11 17:50:4335.907N117.738W9.98 16 km (10 mi) ESE of Little Lake, CA
map1.42021/09/11 17:47:4535.516N118.389W6.65 12 km ( 8 mi) SE of Bodfish, CA
map0.42021/09/11 17:38:4338.844N122.828W2.7 9 km ( 6 mi) WNW of Cobb, CA
map0.62021/09/11 17:36:1133.581N116.596W14.02 8 km ( 5 mi) ENE of Anza, CA
map0.92021/09/11 17:33:4938.830N122.803W1.72 7 km ( 4 mi) W of Cobb, CA
map1.12021/09/11 17:33:0032.785N117.382W15.14 12 km ( 8 mi) SW of La Jolla, CA
map0.62021/09/11 17:23:4638.602N118.448W9.5 17 km (11 mi) ENE of Hawthorne, NV
map0.92021/09/11 17:19:0738.810N122.824W13.19 7 km ( 4 mi) WNW of The Geysers, CA
map1.92021/09/11 17:13:0232.598N115.282W17.12 8 km ( 5 mi) ENE of Puebla, B.C., MX
map1.02021/09/11 17:01:3138.143N117.980W9.7 66 km (41 mi) W of Tonopah, NV
map0.72021/09/11 16:42:2934.169N118.058W12.71 1 km ( 1 mi) NNW of Sierra Madre, CA
map0.92021/09/11 16:32:1933.553N117.248W15.42 3 km ( 2 mi) W of Murrieta, CA
map2.52021/09/11 16:22:4238.814N122.794W1.69 5 km ( 3 mi) NW of The Geysers, CA
map1.22021/09/11 16:06:2337.572N118.740W5.99 22 km (14 mi) ESE of Mammoth Lakes, CA
map1.12021/09/11 15:47:4036.069N117.862W5.85 8 km ( 5 mi) ENE of Coso Junction, CA
map0.52021/09/11 15:34:0335.889N117.693W9.17 20 km (12 mi) ESE of Little Lake, CA
map0.92021/09/11 15:31:4133.555N116.623W10.17 5 km ( 3 mi) E of Anza, CA
map2.02021/09/11 15:30:0837.197N117.372W8.3 63 km (39 mi) WNW of Beatty, NV
map2.32021/09/11 15:24:0637.197N117.409W6.5 66 km (41 mi) WNW of Beatty, NV
map1.12021/09/11 15:14:5737.763N122.538W12.49 10 km ( 6 mi) NNW of Broadmoor, CA
map1.52021/09/11 14:59:4838.821N122.799W2.75 6 km ( 4 mi) NW of The Geysers, CA
map1.12021/09/11 14:37:1333.576N116.806W4.89 12 km ( 8 mi) W of Anza, CA
map1.92021/09/11 14:11:2832.943N115.545W9.89 4 km ( 3 mi) SSW of Brawley, CA
map0.52021/09/11 14:03:1633.598N116.807W6.16 13 km ( 8 mi) WNW of Anza, CA
map1.52021/09/11 13:23:0939.752N123.534W9.52 8 km ( 5 mi) NNW of Laytonville, CA
map0.32021/09/11 13:22:3938.810N122.793W2.92 5 km ( 3 mi) NW of The Geysers, CA
map0.72021/09/11 12:52:2738.387N118.919W3.4 30 km (19 mi) WSW of Hawthorne, NV
map0.72021/09/11 12:34:2233.601N116.807W5.28 13 km ( 8 mi) WNW of Anza, CA
map0.92021/09/11 12:13:1235.969N117.668W2.64 22 km (14 mi) E of Little Lake, CA
map0.62021/09/11 12:08:0340.201N119.800W0.0 60 km (37 mi) NNE of Cold Springs, NV
map0.02021/09/11 12:01:5735.893N117.677W3.91 21 km (13 mi) ESE of Little Lake, CA
map1.52021/09/11 11:59:2238.512N119.522W3.85 34 km (21 mi) SSW of Smith Valley, NV
map2.22021/09/11 11:55:1537.898N118.545W11.14 48 km (30 mi) NE of Mammoth Lakes, CA
map0.72021/09/11 11:48:0937.422N118.896W4.53 25 km (16 mi) SSE of Mammoth Lakes, CA
map1.12021/09/11 11:45:4638.036N118.630W7.5 54 km (33 mi) NE of Mammoth Lakes, CA
map1.02021/09/11 11:32:5333.252N116.776W7.92 2 km ( 1 mi) NW of Lake Henshaw, CA
map1.02021/09/11 11:31:0637.419N118.909W12.16 25 km (16 mi) SSE of Mammoth Lakes, CA
map0.72021/09/11 11:28:1238.825N122.764W2.07 4 km ( 2 mi) W of Cobb, CA
map1.62021/09/11 11:18:5939.276N123.377W1.24 15 km ( 9 mi) W of Redwood Valley, CA
map0.72021/09/11 11:15:0334.020N117.467W-0.38 11 km ( 7 mi) WSW of Quarry at SLOVER (Probable quarry explosion)
map1.02021/09/11 11:02:3737.417N118.896W5.28 25 km (16 mi) SSE of Mammoth Lakes, CA
map0.52021/09/11 10:28:4833.695N116.737W16.31 5 km ( 3 mi) SSW of Idyllwild, CA
map0.92021/09/11 09:49:0936.607N121.128W8.02 27 km (17 mi) NE of Soledad, CA
map0.52021/09/11 09:24:5138.797N122.777W3.61 3 km ( 2 mi) NW of The Geysers, CA
map1.62021/09/11 09:24:3233.165N116.381W3.41 10 km ( 6 mi) S of Borrego Springs, CA
map0.92021/09/11 09:11:0035.584N117.597W2.34 8 km ( 5 mi) ESE of Ridgecrest, CA
map1.02021/09/11 09:03:3136.157N118.075W1.94 15 km ( 9 mi) SSW of Olancha, CA
map0.32021/09/11 08:52:3833.997N116.827W10.86 9 km ( 6 mi) NNE of Banning, CA
map1.12021/09/11 08:46:4136.030N117.306W4.84 30 km (19 mi) NNE of Trona, CA
map0.82021/09/11 08:19:3637.133N121.534W1.99 9 km ( 5 mi) NE of San Martin, CA
map1.02021/09/11 08:13:0438.831N122.815W4.86 8 km ( 5 mi) NW of The Geysers, CA
map0.42021/09/11 08:06:0738.798N122.749W2.99 2 km ( 1 mi) NNE of The Geysers, CA
map0.52021/09/11 07:59:4738.780N122.756W1.32 0 km ( 0 mi) N of The Geysers, CA
map1.12021/09/11 07:58:5534.125N117.781W6.06 3 km ( 2 mi) NNW of La Verne, CA
map0.22021/09/11 07:54:3233.511N116.448W8.02 21 km (13 mi) SW of La Quinta, CA
map2.32021/09/11 07:45:0439.745N123.530W7.61 8 km ( 5 mi) NNW of Laytonville, CA
map0.72021/09/11 07:42:2633.973N116.640W9.97 10 km ( 6 mi) SSW of Morongo Valley, CA
map1.22021/09/11 07:32:2038.838N122.839W1.02 10 km ( 6 mi) NW of The Geysers, CA
map2.52021/09/11 07:25:3339.883N123.522W4.47 22 km (14 mi) N of Laytonville, CA
map0.42021/09/11 07:22:5938.835N122.816W1.43 8 km ( 5 mi) W of Cobb, CA
map1.22021/09/11 07:17:3637.899N118.558W4.39 47 km (29 mi) NE of Mammoth Lakes, CA
map1.32021/09/11 07:13:4534.154N116.112W6.3 4 km ( 3 mi) WNW of Twentynine Palms, CA
map0.52021/09/11 07:05:0833.947N116.828W9.5 5 km ( 3 mi) NW of Cabazon, CA
map2.02021/09/11 07:04:1238.475N119.495W8.62 37 km (23 mi) SSW of Smith Valley, NV
map1.22021/09/11 06:52:3840.331N121.212W11.25 3 km ( 2 mi) NNE of Chester, CA
map0.92021/09/11 06:52:2138.829N122.806W5.54 7 km ( 4 mi) NW of The Geysers, CA
map0.92021/09/11 06:30:1832.909N115.500W6.34 8 km ( 5 mi) SSE of Brawley, CA
map0.82021/09/11 06:30:0433.484N116.499W12.39 18 km (11 mi) ESE of Anza, CA
map0.82021/09/11 06:29:3633.488N116.498W12.91 18 km (11 mi) ESE of Anza, CA
map0.52021/09/11 06:27:2738.156N118.181W2.0 56 km (35 mi) SE of Hawthorne, NV
map-0.22021/09/11 06:06:2937.635N118.875W6.46 9 km ( 6 mi) E of Mammoth Lakes, CA
map1.22021/09/11 05:55:4335.675N117.558W7.23 12 km ( 8 mi) ENE of Ridgecrest, CA
map0.62021/09/11 05:49:4337.447N118.897W5.08 22 km (14 mi) SSE of Mammoth Lakes, CA
map0.92021/09/11 05:14:2538.837N122.792W1.76 6 km ( 4 mi) WNW of Cobb, CA
map0.52021/09/11 04:59:5338.178N117.873W10.2 57 km (36 mi) WNW of Tonopah, NV
map0.52021/09/11 04:49:3838.786N122.754W2.49 1 km ( 1 mi) N of The Geysers, CA
map0.42021/09/11 04:41:0533.499N116.778W4.11 10 km ( 6 mi) NE of Aguanga, CA
map1.02021/09/11 04:28:5235.705N117.505W7.29 11 km ( 7 mi) SW of Searles Valley, CA
map0.92021/09/11 04:22:2337.915N122.291W4.27 1 km ( 1 mi) WNW of Kensington, CA
map0.82021/09/11 04:18:4938.820N122.802W3.83 6 km ( 4 mi) NW of The Geysers, CA
map0.42021/09/11 04:13:3838.821N122.799W3.19 6 km ( 4 mi) NW of The Geysers, CA
map0.22021/09/11 04:13:0340.034N119.603W4.8 44 km (27 mi) NNE of Spanish Springs, NV
map0.52021/09/11 04:11:5938.826N122.786W1.34 5 km ( 3 mi) W of Cobb, CA
map1.42021/09/11 03:59:5334.692N116.300W4.59 13 km ( 8 mi) WSW of Ludlow, CA
map0.62021/09/11 03:55:4035.753N117.572W12.09 15 km ( 9 mi) W of Searles Valley, CA
map0.62021/09/11 03:49:2633.975N117.162W16.31 8 km ( 5 mi) NE of Moreno Valley, CA
map1.02021/09/11 03:40:4038.780N122.745W0.33 1 km ( 1 mi) ENE of The Geysers, CA
map1.72021/09/11 02:47:3637.261N117.857W6.7 40 km (25 mi) ENE of Big Pine, CA
map0.22021/09/11 02:40:2433.601N116.806W6.01 13 km ( 8 mi) WNW of Anza, CA
map0.92021/09/11 02:40:1338.787N122.746W2.2 1 km ( 1 mi) NE of The Geysers, CA
map0.62021/09/11 02:17:1937.479N118.872W2.62 20 km (12 mi) SSE of Mammoth Lakes, CA
map1.62021/09/11 02:16:3440.475N121.477W2.54 28 km (17 mi) NW of Chester, CA
map2.12021/09/11 02:13:0339.150N123.117W8.04 5 km ( 3 mi) ENE of Talmage, CA
map0.72021/09/11 02:12:1735.975N117.326W4.48 24 km (15 mi) N of Trona, CA
map0.52021/09/11 02:09:3038.158N118.193W9.3 55 km (34 mi) SE of Hawthorne, NV
map1.52021/09/11 02:01:5038.470N119.487W8.19 37 km (23 mi) SSW of Smith Valley, NV
map0.62021/09/11 01:48:5838.165N117.843W10.3 55 km (34 mi) W of Tonopah, NV
map0.32021/09/11 01:41:5033.508N116.482W14.97 19 km (12 mi) ESE of Anza, CA
map0.92021/09/11 01:35:4838.825N122.812W1.61 7 km ( 4 mi) NW of The Geysers, CA
map1.42021/09/11 01:31:1435.801N117.614W7.28 19 km (12 mi) W of Searles Valley, CA
map0.52021/09/11 01:18:4138.605N119.364W3.6 20 km (12 mi) S of Smith Valley, NV
map0.92021/09/11 01:10:1438.832N122.820W1.94 8 km ( 5 mi) NW of The Geysers, CA
map1.12021/09/11 01:05:5640.473N121.476W2.4 28 km (17 mi) NW of Chester, CA
map0.22021/09/11 00:57:5640.146N119.650W9.0 56 km (34 mi) N of Spanish Springs, NV
map1.02021/09/11 00:36:0033.974N116.846W17.88 6 km ( 4 mi) NNE of Banning, CA
map-0.12021/09/11 00:21:0437.612N118.864W1.33 10 km ( 7 mi) ESE of Mammoth Lakes, CA
map0.12021/09/11 00:19:3433.524N116.546W13.61 12 km ( 8 mi) ESE of Anza, CA
map0.82021/09/11 00:10:5538.165N117.995W2.2 68 km (42 mi) W of Tonopah, NV
map1.42021/09/10 23:51:4638.153N117.923W8.8 61 km (38 mi) W of Tonopah, NV
map0.82021/09/10 23:24:3738.825N122.803W2.4 7 km ( 4 mi) NW of The Geysers, CA
map0.12021/09/10 23:20:2138.210N118.587W10.7 35 km (22 mi) S of Hawthorne, NV
map1.12021/09/10 23:14:2435.913N117.740W3.96 15 km ( 9 mi) E of Little Lake, CA
map1.02021/09/10 22:35:3835.784N117.591W8 17 km (11 mi) W of Searles Valley, CA
map1.12021/09/10 22:24:2835.676N117.542W6.2 14 km ( 8 mi) ENE of Ridgecrest, CA
map1.62021/09/10 22:19:0935.667N117.483W6.45 13 km ( 8 mi) SSW of Searles Valley, CA
map1.22021/09/10 22:13:1137.462N115.338W0.0 19 km (12 mi) NW of Alamo, NV
map1.02021/09/10 22:05:3037.263N121.622W7.58 15 km ( 9 mi) N of Morgan Hill, CA
map1.52021/09/10 22:04:1634.138N117.446W7.26 5 km ( 3 mi) NNE of Fontana, CA
map1.52021/09/10 21:56:4638.793N122.764W2.19 2 km ( 1 mi) NNW of The Geysers, CA
map2.52021/09/10 21:54:2437.899N118.553W0.88 47 km (29 mi) NE of Mammoth Lakes, CA
map0.32021/09/10 21:42:3640.071N119.650W8.0 47 km (29 mi) N of Spanish Springs, NV
map1.62021/09/10 21:29:2938.468N119.531W2.87 39 km (24 mi) SSW of Smith Valley, NV
map0.22021/09/10 20:54:5933.494N116.779W3.3 10 km ( 6 mi) NE of Aguanga, CA
map1.72021/09/10 20:51:5432.764N115.528W11.44 4 km ( 2 mi) N of Heber, CA
map0.72021/09/10 20:44:0435.874N117.645W12.71 25 km (15 mi) ESE of Little Lake, CA
map0.42021/09/10 20:42:3438.814N122.805W2.21 6 km ( 4 mi) NW of The Geysers, CA
map0.72021/09/10 20:19:2037.486N118.841W4.51 21 km (13 mi) SE of Mammoth Lakes, CA
map1.32021/09/10 20:16:2939.148N123.124W7.53 4 km ( 3 mi) ENE of Talmage, CA
map1.62021/09/10 20:15:4838.828N122.815W1.84 8 km ( 5 mi) NW of The Geysers, CA
map0.82021/09/10 20:14:3438.826N122.854W2.5 10 km ( 6 mi) WNW of The Geysers, CA
map0.22021/09/10 20:04:5338.518N119.520W4.83 33 km (21 mi) SSW of Smith Valley, NV
map0.52021/09/10 20:04:0038.516N119.512W6.84 33 km (21 mi) SSW of Smith Valley, NV
map2.42021/09/10 20:00:1640.367N124.553W21.19 34 km (21 mi) SW of Ferndale, CA
map0.72021/09/10 19:54:1138.813N122.796W1.8 5 km ( 3 mi) NW of The Geysers, CA
map1.02021/09/10 19:51:0835.783N117.572W8.58 15 km ( 9 mi) W of Searles Valley, CA
map1.52021/09/10 19:47:3138.501N119.515W5.75 35 km (22 mi) SSW of Smith Valley, NV
map0.42021/09/10 19:43:5538.840N122.826W1.69 9 km ( 6 mi) WNW of Cobb, CA
map0.02021/09/10 19:34:0935.966N117.691W2.69 20 km (12 mi) E of Little Lake, CA
map0.62021/09/10 19:28:5333.630N116.677W13.45 8 km ( 5 mi) N of Anza, CA
map1.02021/09/10 18:59:0235.939N117.690W3.67 20 km (12 mi) E of Little Lake, CA
map1.42021/09/10 18:46:0637.368N117.135W2.6 61 km (38 mi) NNW of Beatty, NV
map1.22021/09/10 18:40:2038.170N117.878W11.2 58 km (36 mi) W of Tonopah, NV
map0.42021/09/10 18:27:3638.825N122.853W1.88 10 km ( 6 mi) WNW of The Geysers, CA
map1.02021/09/10 18:25:5638.168N117.884W14.0 58 km (36 mi) W of Tonopah, NV
map0.52021/09/10 18:22:1938.543N119.510W5.41 30 km (19 mi) SSW of Smith Valley, NV
map1.42021/09/10 18:20:3233.240N115.647W3.8 12 km ( 7 mi) W of Niland, CA
map1.12021/09/10 18:18:5634.138N117.440W7.39 5 km ( 3 mi) NNE of Fontana, CA
map2.62021/09/10 18:17:4434.129N117.777W5.88 3 km ( 2 mi) NNW of La Verne, CA
map1.22021/09/10 18:05:5736.586N121.186W7.42 22 km (14 mi) NE of Soledad, CA
map0.42021/09/10 18:02:2538.826N122.852W2.11 10 km ( 6 mi) WNW of The Geysers, CA
map2.12021/09/10 17:57:3136.586N121.188W7.62 22 km (14 mi) NE of Soledad, CA
map0.92021/09/10 17:56:3838.825N122.855W2.32 10 km ( 6 mi) WNW of The Geysers, CA
map0.72021/09/10 17:56:2438.826N122.854W2.24 10 km ( 6 mi) WNW of The Geysers, CA
map0.52021/09/10 17:29:1638.523N119.493W6.14 32 km (20 mi) SSW of Smith Valley, NV
map0.52021/09/10 17:25:1938.792N122.765W2.95 2 km ( 1 mi) NNW of The Geysers, CA
map0.12021/09/10 17:23:1235.651N117.394W2.71 13 km ( 8 mi) S of Trona, CA
map0.22021/09/10 17:22:4338.529N119.475W4.5 31 km (19 mi) SSW of Smith Valley, NV
map0.02021/09/10 17:22:3638.167N117.880W11.2 58 km (36 mi) W of Tonopah, NV
map1.22021/09/10 17:11:0538.147N117.937W11.7 62 km (39 mi) W of Tonopah, NV
map0.42021/09/10 17:10:2433.514N116.563W13.41 11 km ( 7 mi) ESE of Anza, CA
map1.62021/09/10 17:05:3833.237N115.644W3.57 12 km ( 7 mi) W of Niland, CA
map0.62021/09/10 17:05:0933.687N116.787W16.26 9 km ( 5 mi) SW of Idyllwild, CA
map1.72021/09/10 17:03:0337.972N122.047W11.9 3 km ( 2 mi) ESE of Pacheco, CA
map1.42021/09/10 16:40:3936.037N120.599W3.75 22 km (13 mi) NW of Parkfield, CA
map0.82021/09/10 16:34:4834.096N116.419W11.22 2 km ( 1 mi) SSE of Yucca Valley, CA
map0.72021/09/10 16:24:1033.230N116.735W11.68 3 km ( 2 mi) ESE of Lake Henshaw, CA
MAP3.42021/09/10 16:03:1538.168N117.839W7.9 54 km (34 mi) WNW of Tonopah, NV
map1.22021/09/10 15:59:3833.136N117.155W-0.2 1 km ( 0 mi) NW of Quarry at E-VISTA (Probable quarry explosion)
map1.62021/09/10 15:52:5933.065N115.010W-0.25 1 km ( 1 mi) WNW of Quarry at RUN (Probable quarry explosion)
map1.72021/09/10 15:49:3236.312N120.891W8.04 24 km (15 mi) ENE of King City, CA
map1.22021/09/10 15:45:1137.312N120.071W11.42 18 km (11 mi) ENE of Le Grand, CA
map0.62021/09/10 15:15:2738.833N122.804W2.07 7 km ( 4 mi) W of Cobb, CA
map2.02021/09/10 14:47:1436.891N121.610W-0.14 3 km ( 2 mi) SE of Quarry near Logan (Watsonville), CA(Probable quarry explosion)
map0.62021/09/10 14:33:5733.227N116.734W11.66 3 km ( 2 mi) ESE of Lake Henshaw, CA
map0.82021/09/10 13:41:2933.298N116.244W10.42 13 km ( 8 mi) ENE of Borrego Springs, CA
map1.02021/09/10 13:36:0933.651N116.704W12.74 10 km ( 6 mi) S of Idyllwild, CA
map1.02021/09/10 13:34:0638.811N122.803W1.74 5 km ( 3 mi) NW of The Geysers, CA
map1.12021/09/10 13:28:4733.033N116.433W7.71 17 km (10 mi) ESE of Julian, CA
map0.62021/09/10 13:28:0533.655N116.706W14.18 10 km ( 6 mi) S of Idyllwild, CA
map0.42021/09/10 13:27:4233.650N116.706W13.47 10 km ( 6 mi) S of Idyllwild, CA
map0.52021/09/10 13:12:3138.797N122.751W2.69 2 km ( 1 mi) NNE of The Geysers, CA
map1.72021/09/10 12:40:1133.248N115.656W4.37 13 km ( 8 mi) W of Niland, CA
map0.52021/09/10 12:30:5335.890N117.682W10.32 21 km (13 mi) ESE of Little Lake, CA
map0.12021/09/10 12:27:0735.768N117.534W10.24 12 km ( 7 mi) W of Searles Valley, CA
map1.02021/09/10 12:17:4438.816N122.760W1.6 3 km ( 2 mi) WSW of Cobb, CA
map1.12021/09/10 12:12:1636.552N121.112W1.35 24 km (15 mi) NE of Soledad, CA
map0.72021/09/10 12:00:5633.639N116.689W14.12 9 km ( 6 mi) N of Anza, CA
map0.72021/09/10 11:58:0333.566N117.495W-0.54 2 km ( 1 mi) SSE of Quarry at ELS (Probable quarry explosion)
map0.62021/09/10 11:45:3738.798N122.786W-0.37 3 km ( 2 mi) NW of The Geysers, CA
map1.62021/09/10 11:40:2636.159N118.071W2.32 15 km ( 9 mi) SSW of Olancha, CA
map1.02021/09/10 11:23:1238.521N119.490W5.58 32 km (20 mi) SSW of Smith Valley, NV
map0.62021/09/10 11:20:5737.502N118.871W3.04 18 km (11 mi) SSE of Mammoth Lakes, CA
map0.22021/09/10 10:54:5238.824N122.782W1.17 5 km ( 3 mi) W of Cobb, CA
map2.12021/09/10 10:29:4033.836N117.496W2.22 2 km ( 1 mi) SSE of Quarry at CORONA (Probable quarry explosion)
map0.42021/09/10 10:21:3535.880N117.711W5.85 19 km (12 mi) ESE of Little Lake, CA
map1.22021/09/10 10:17:0834.857N118.784W-1.1 2 km ( 1 mi) WNW of Quarry at GORMAN (Probable quarry explosion)
map0.52021/09/10 10:16:1336.459N117.966W9.31 17 km (11 mi) SSE of Lone Pine, CA
map0.92021/09/10 10:11:5538.818N122.825W2.91 7 km ( 5 mi) NW of The Geysers, CA
map2.42021/09/10 10:06:3340.308N124.374W28.53 31 km (19 mi) SW of Rio Dell, CA
map1.02021/09/10 09:56:2635.646N117.527W7.73 14 km ( 9 mi) ENE of Ridgecrest, CA
map0.42021/09/10 09:47:4538.825N122.853W2.55 10 km ( 6 mi) WNW of The Geysers, CA
map0.52021/09/10 09:18:4938.768N122.737W1.43 2 km ( 1 mi) ESE of The Geysers, CA
map0.22021/09/10 09:18:3138.771N122.737W1.06 2 km ( 1 mi) ESE of The Geysers, CA
map0.62021/09/10 09:06:3933.590N116.806W7.5 13 km ( 8 mi) WNW of Anza, CA
map1.22021/09/10 09:06:0834.143N117.475W11.36 5 km ( 3 mi) NNW of Fontana, CA
map1.22021/09/10 08:49:5534.463N117.966W8.36 7 km ( 4 mi) SSE of Littlerock, CA
map1.62021/09/10 08:49:1135.245N118.522W6.29 14 km ( 9 mi) NNW of Tehachapi, CA
map0.62021/09/10 08:46:1438.163N117.894W9.4 59 km (37 mi) W of Tonopah, NV
map0.42021/09/10 08:39:4238.829N122.815W1.77 8 km ( 5 mi) NW of The Geysers, CA
map0.92021/09/10 08:29:2838.815N122.823W2.81 7 km ( 4 mi) NW of The Geysers, CA
map1.32021/09/10 08:28:1335.507N118.389W6.66 13 km ( 8 mi) SE of Bodfish, CA
map1.42021/09/10 08:22:3238.814N122.823W3.22 7 km ( 4 mi) NW of The Geysers, CA
map1.12021/09/10 08:21:1238.815N122.822W2.97 7 km ( 4 mi) NW of The Geysers, CA
map0.22021/09/10 08:21:0535.845N117.672W8.58 23 km (15 mi) ESE of Little Lake, CA
map0.72021/09/10 08:06:2733.378N116.874W6.05 3 km ( 2 mi) NNW of Palomar Observatory, CA
map2.22021/09/10 07:59:0936.645N121.258W4.13 21 km (13 mi) SSE of Ridgemark, CA
map0.92021/09/10 07:55:0638.823N122.811W2.48 7 km ( 4 mi) NW of The Geysers, CA
map0.92021/09/10 07:41:1938.829N122.815W1.83 8 km ( 5 mi) NW of The Geysers, CA
map0.72021/09/10 07:35:0733.638N116.693W14.82 9 km ( 6 mi) N of Anza, CA
map0.42021/09/10 07:32:0438.826N122.809W3.69 7 km ( 4 mi) NW of The Geysers, CA
map1.32021/09/10 07:28:2638.787N122.769W1.33 2 km ( 1 mi) NW of The Geysers, CA
map0.62021/09/10 07:28:1438.789N122.767W1.47 2 km ( 1 mi) NW of The Geysers, CA
map0.92021/09/10 07:19:0038.833N122.819W1.4 8 km ( 5 mi) NW of The Geysers, CA
map1.32021/09/10 07:18:0238.532N119.533W4.86 32 km (20 mi) SSW of Smith Valley, NV
map0.72021/09/10 07:16:2538.803N122.773W1.45 3 km ( 2 mi) NNW of The Geysers, CA
map1.22021/09/10 07:13:0238.835N122.790W2.04 6 km ( 4 mi) WNW of Cobb, CA
map0.22021/09/10 06:54:0935.853N117.694W8.05 21 km (13 mi) ESE of Little Lake, CA
map0.82021/09/10 06:49:4938.819N122.781W0.97 5 km ( 3 mi) W of Cobb, CA
map0.72021/09/10 06:43:1733.973N116.721W12.31 9 km ( 5 mi) NE of Cabazon, CA
map0.72021/09/10 06:40:0638.803N122.772W1.45 3 km ( 2 mi) NNW of The Geysers, CA
map0.42021/09/10 06:33:1035.904N117.700W8.45 19 km (12 mi) E of Little Lake, CA
map0.72021/09/10 06:26:4135.922N117.682W2.57 20 km (13 mi) E of Little Lake, CA
map0.32021/09/10 06:19:3937.584N118.910W8.97 9 km ( 5 mi) SE of Mammoth Lakes, CA
map0.72021/09/10 06:08:4238.161N117.896W12.3 59 km (37 mi) W of Tonopah, NV
map0.52021/09/10 06:00:1335.892N117.690W9.27 20 km (13 mi) ESE of Little Lake, CA
map0.02021/09/10 05:54:5235.936N117.734W4.69 16 km (10 mi) E of Little Lake, CA
map0.92021/09/10 05:54:2935.645N117.532W7.96 13 km ( 8 mi) ENE of Ridgecrest, CA
map0.32021/09/10 05:53:3937.206N116.502W8.9 40 km (25 mi) NE of Beatty, NV
map2.22021/09/10 05:10:1833.980N119.878W7.17 11 km ( 7 mi) SSE of Santa Cruz Is. (NW end), CA
map1.82021/09/10 04:52:1638.479N119.533W4.36 38 km (23 mi) SSW of Smith Valley, NV
map0.62021/09/10 04:51:5637.213N116.509W10.2 40 km (25 mi) NNE of Beatty, NV
map1.42021/09/10 04:49:0535.890N117.693W8.76 20 km (12 mi) ESE of Little Lake, CA
map1.72021/09/10 04:24:4138.037N118.766W4.69 48 km (30 mi) NNE of Mammoth Lakes, CA
map0.62021/09/10 04:20:3538.816N122.823W2.88 7 km ( 4 mi) NW of The Geysers, CA
map2.52021/09/10 04:19:3732.528N115.443W11.28 9 km ( 6 mi) WSW of Puebla, B.C., MX
map1.22021/09/10 04:18:5934.017N116.734W14.91 12 km ( 8 mi) NNE of Cabazon, CA
map1.22021/09/10 04:17:1335.684N117.473W11.29 11 km ( 7 mi) SW of Searles Valley, CA
map0.82021/09/10 04:15:2138.529N119.459W2.7 30 km (19 mi) SSW of Smith Valley, NV
map1.62021/09/10 04:08:1540.604N123.984W25.38 11 km ( 7 mi) ENE of Hydesville, CA
map0.62021/09/10 04:06:5537.146N121.530W7.35 10 km ( 6 mi) NE of San Martin, CA
map1.02021/09/10 04:02:5738.527N119.476W3.3 31 km (19 mi) SSW of Smith Valley, NV
map1.22021/09/10 03:59:2635.689N117.466W10.88 10 km ( 6 mi) SSW of Searles Valley, CA
map0.92021/09/10 03:51:0338.825N122.809W1.46 7 km ( 4 mi) NW of The Geysers, CA
map1.12021/09/10 03:50:3138.824N122.809W1.13 7 km ( 4 mi) NW of The Geysers, CA
map0.52021/09/10 03:48:3435.890N117.695W8.63 20 km (12 mi) ESE of Little Lake, CA
map1.32021/09/10 03:45:3734.060N117.260W18.14 1 km ( 1 mi) N of Loma Linda, CA
map1.22021/09/10 03:39:1735.685N117.474W11.55 11 km ( 7 mi) SW of Searles Valley, CA
map1.92021/09/10 03:33:0338.523N119.492W5.83 32 km (20 mi) SSW of Smith Valley, NV
map1.02021/09/10 03:22:3638.567N119.423W2.09 25 km (16 mi) SSW of Smith Valley, NV
map0.92021/09/10 03:06:2134.237N117.464W12.49 4 km ( 3 mi) SE of Lytle Creek, CA
map1.62021/09/10 03:01:2041.449N122.258W6.47 11 km ( 7 mi) ENE of Weed, CA
map0.82021/09/10 02:28:1438.181N117.787W11.9 50 km (31 mi) WNW of Tonopah, NV
map0.82021/09/10 02:20:3938.460N119.489W11.1 38 km (24 mi) SSW of Smith Valley, NV
map0.62021/09/10 02:00:0033.999N117.230W11.67 6 km ( 4 mi) SSE of Loma Linda, CA
map0.62021/09/10 01:53:3033.998N117.226W9.46 7 km ( 4 mi) SSE of Loma Linda, CA
map0.82021/09/10 01:33:3738.766N122.710W1.32 4 km ( 3 mi) ESE of The Geysers, CA
map1.52021/09/10 01:31:4038.491N119.528W4.24 36 km (23 mi) SSW of Smith Valley, NV
map1.62021/09/10 01:23:3639.244N123.193W6.44 3 km ( 2 mi) SSE of Redwood Valley, CA
map0.52021/09/10 01:22:4335.319N118.502W6.02 21 km (13 mi) NNW of Tehachapi, CA
map0.72021/09/10 01:22:1535.859N117.693W7.52 21 km (13 mi) ESE of Little Lake, CA
map0.82021/09/10 01:20:4233.477N116.439W13.56 23 km (15 mi) ESE of Anza, CA
map0.92021/09/10 01:02:5338.817N122.814W2.45 7 km ( 4 mi) NW of The Geysers, CA
map1.02021/09/10 01:00:2535.642N117.455W6.35 15 km ( 9 mi) SSW of Searles Valley, CA
map1.42021/09/10 00:58:5038.833N122.817W1.98 8 km ( 5 mi) NW of The Geysers, CA
map0.42021/09/10 00:43:5238.833N122.817W1.57 8 km ( 5 mi) NW of The Geysers, CA
map1.72021/09/10 00:41:4237.188N121.006W9.21 8 km ( 5 mi) S of Gustine, CA
map0.62021/09/10 00:34:4338.761N122.738W0.88 2 km ( 1 mi) SE of The Geysers, CA
map0.62021/09/10 00:29:5634.215N117.404W3.77 1 km ( 0 mi) SSW of Devore, CA
map0.42021/09/10 00:11:5238.822N122.804W2.78 6 km ( 4 mi) NW of The Geysers, CA
map1.72021/09/10 00:07:3938.552N119.414W2.82 27 km (16 mi) SSW of Smith Valley, NV
map0.52021/09/10 00:01:4638.157N117.898W12.8 59 km (37 mi) W of Tonopah, NV
map1.12021/09/09 23:43:4738.166N117.897W10.4 59 km (37 mi) W of Tonopah, NV
map1.72021/09/09 23:38:5736.145N118.026W2.4 13 km ( 8 mi) NNW of Coso Junction, CA
map1.12021/09/09 23:00:4038.156N117.883W8.1 58 km (36 mi) W of Tonopah, NV
map1.12021/09/09 22:50:0232.825N115.582W10.85 3 km ( 2 mi) SSW of Imperial, CA
map0.62021/09/09 22:39:0738.576N119.419W2.0 24 km (15 mi) SSW of Smith Valley, NV
map0.42021/09/09 22:38:4033.462N116.557W11.78 15 km ( 9 mi) SE of Anza, CA
map0.92021/09/09 22:19:0738.568N119.422W0.0 25 km (15 mi) SSW of Smith Valley, NV
map0.92021/09/09 22:15:5038.834N122.816W1.68 8 km ( 5 mi) NW of The Geysers, CA
map0.92021/09/09 22:00:4938.757N122.886W3.39 11 km ( 7 mi) WSW of The Geysers, CA
map0.52021/09/09 21:35:4133.992N116.731W16.9 10 km ( 6 mi) NNE of Cabazon, CA
map1.72021/09/09 21:08:1938.835N122.785W1.6 6 km ( 3 mi) WNW of Cobb, CA
map0.02021/09/09 20:43:1638.795N122.766W2.66 2 km ( 1 mi) NNW of The Geysers, CA
map0.42021/09/09 20:41:2033.599N116.807W5.89 13 km ( 8 mi) WNW of Anza, CA
map0.42021/09/09 20:27:3238.837N122.808W1.9 8 km ( 5 mi) WNW of Cobb, CA
map0.92021/09/09 20:25:4334.025N117.495W8.53 2 km ( 1 mi) NNW of Glen Avon, CA
map1.42021/09/09 20:14:5438.560N119.415W-1 26 km (16 mi) SSW of Smith Valley, NV
map0.82021/09/09 19:45:3538.820N122.805W4.24 6 km ( 4 mi) NW of The Geysers, CA
map0.52021/09/09 19:37:1835.963N117.915W3.1 3 km ( 2 mi) NNW of Little Lake, CA
map1.02021/09/09 19:34:4338.419N119.585W11.4 46 km (28 mi) SSW of Smith Valley, NV
map2.22021/09/09 19:29:5838.554N119.416W1.9 26 km (16 mi) SSW of Smith Valley, NV
map0.42021/09/09 19:22:0835.667N117.459W8 12 km ( 8 mi) SSW of Searles Valley, CA
map1.22021/09/09 19:12:1538.501N119.534W4.55 36 km (22 mi) SSW of Smith Valley, NV
map1.72021/09/09 18:56:3537.728N121.989W6.51 5 km ( 3 mi) WNW of Dublin, CA
map0.82021/09/09 18:27:3935.598N117.403W8.04 19 km (12 mi) S of Trona, CA
map1.72021/09/09 18:27:3740.676N122.414W18.75 4 km ( 2 mi) W of Central Valley (historical), CA
map1.82021/09/09 18:16:2239.196N119.627W5.4 5 km ( 3 mi) SSW of Dayton, NV
map1.02021/09/09 18:11:5234.725N116.298W5.39 13 km ( 8 mi) W of Ludlow, CA
map-0.42021/09/09 17:59:2635.817N117.656W6.54 22 km (14 mi) N of Ridgecrest, CA
map0.32021/09/09 17:59:1335.673N117.510W7.98 14 km ( 9 mi) SW of Searles Valley, CA
map0.82021/09/09 17:58:2838.828N122.796W2.88 6 km ( 4 mi) W of Cobb, CA
map0.62021/09/09 17:57:3239.193N119.633W6.2 6 km ( 4 mi) SW of Dayton, NV
map1.32021/09/09 17:44:2738.805N122.814W2.39 6 km ( 4 mi) WNW of The Geysers, CA
map0.62021/09/09 17:13:5734.335N117.727W5.83 9 km ( 6 mi) WSW of Wrightwood, CA
map2.32021/09/09 17:06:1235.734N117.540W3.06 13 km ( 8 mi) WSW of Searles Valley, CA
map2.22021/09/09 17:03:5340.291N124.371W30.68 32 km (20 mi) SW of Rio Dell, CA
map0.72021/09/09 17:00:1735.699N117.510W2.38 12 km ( 8 mi) SW of Searles Valley, CA
map0.62021/09/09 16:55:4637.492N118.842W4.99 20 km (13 mi) SE of Mammoth Lakes, CA